Time,TemperatureF,DewpointF,PressureIn,WindDirection,WindDirectionDegrees,WindSpeedMPH,WindSpeedGustMPH,Humidity,HourlyPrecipIn,Conditions,Clouds,dailyrainin,SoftwareType,DateUTC
2013-06-30 00:00:00,76.6,49.1,29.75,SSW,202,5.3,5.3,38,0.00,,,0.00,VWS V14.00,2013-06-29 21:00:00,
2013-06-30 00:02:00,76.4,48.9,29.75,East,90,0.8,5.3,38,0.00,,,0.00,VWS V14.00,2013-06-29 21:02:00,
2013-06-30 00:03:00,76.4,48.9,29.75,East,90,0.8,5.3,38,0.00,,,0.00,VWS V14.00,2013-06-29 21:03:00,
2013-06-30 00:04:00,76.2,48.8,29.75,South,180,4.9,5.3,38,0.00,,,0.00,VWS V14.00,2013-06-29 21:04:00,
2013-06-30 00:05:00,76.2,48.8,29.75,South,180,4.9,5.3,38,0.00,,,0.00,VWS V14.00,2013-06-29 21:05:00,
2013-06-30 00:07:00,76.2,48.8,29.75,SW,225,4.6,4.6,38,0.00,,,0.00,VWS V14.00,2013-06-29 21:07:00,
2013-06-30 00:08:00,76.2,48.8,29.75,NNE,22,1.3,4.6,38,0.00,,,0.00,VWS V14.00,2013-06-29 21:08:00,
2013-06-30 00:09:00,76.2,48.8,29.75,NNE,22,1.3,4.6,38,0.00,,,0.00,VWS V14.00,2013-06-29 21:09:00,
2013-06-30 00:10:00,76.2,48.8,29.75,NNE,22,1.3,4.6,38,0.00,,,0.00,VWS V14.00,2013-06-29 21:10:00,
2013-06-30 00:12:00,76.1,48.7,29.75,West,270,3.8,3.8,38,0.00,,,0.00,VWS V14.00,2013-06-29 21:12:00,
2013-06-30 00:13:00,76.1,48.7,29.75,West,270,3.8,3.8,38,0.00,,,0.00,VWS V14.00,2013-06-29 21:13:00,
2013-06-30 00:14:00,76.1,48.7,29.75,West,270,3.8,3.8,38,0.00,,,0.00,VWS V14.00,2013-06-29 21:14:00,
2013-06-30 00:15:00,76.1,48.7,29.75,West,270,1.7,3.8,38,0.00,,,0.00,VWS V14.00,2013-06-29 21:15:00,
2013-06-30 00:17:00,76.1,49.4,29.75,NW,315,0.6,1.7,39,0.00,,,0.00,VWS V14.00,2013-06-29 21:17:00,
2013-06-30 00:18:00,76.1,49.4,29.75,NW,315,0.6,1.7,39,0.00,,,0.00,VWS V14.00,2013-06-29 21:18:00,
2013-06-30 00:19:00,75.9,49.2,29.75,West,270,0.0,1.7,39,0.00,,,0.00,VWS V14.00,2013-06-29 21:19:00,
2013-06-30 00:20:00,75.9,49.2,29.75,West,270,0.0,1.7,39,0.00,,,0.00,VWS V14.00,2013-06-29 21:20:00,
2013-06-30 00:22:00,75.9,49.2,29.75,NW,315,2.0,2.9,39,0.00,,,0.00,VWS V14.00,2013-06-29 21:22:00,
2013-06-30 00:23:00,75.9,49.2,29.75,NW,315,2.0,2.9,39,0.00,,,0.00,VWS V14.00,2013-06-29 21:23:00,
2013-06-30 00:24:00,75.9,49.2,29.75,NW,315,2.0,2.9,39,0.00,,,0.00,VWS V14.00,2013-06-29 21:24:00,
2013-06-30 00:25:00,75.9,49.2,29.75,NW,315,2.0,2.9,39,0.00,,,0.00,VWS V14.00,2013-06-29 21:25:00,
2013-06-30 00:27:00,75.9,49.2,29.75,SSW,202,2.0,4.4,39,0.00,,,0.00,VWS V14.00,2013-06-29 21:27:00,
2013-06-30 00:28:00,75.9,49.2,29.75,SSW,202,2.0,4.4,39,0.00,,,0.00,VWS V14.00,2013-06-29 21:28:00,
2013-06-30 00:29:00,75.9,49.2,29.75,SW,225,2.6,4.4,39,0.00,,,0.00,VWS V14.00,2013-06-29 21:29:00,
2013-06-30 00:30:00,75.9,49.2,29.75,SW,225,2.6,4.4,39,0.00,,,0.00,VWS V14.00,2013-06-29 21:30:00,
2013-06-30 00:32:00,75.9,49.2,29.75,SW,225,2.4,2.6,39,0.00,,,0.00,VWS V14.00,2013-06-29 21:32:00,
2013-06-30 00:33:00,75.9,49.2,29.75,WSW,248,2.2,2.6,39,0.00,,,0.00,VWS V14.00,2013-06-29 21:33:00,
2013-06-30 00:34:00,75.9,49.2,29.75,WSW,248,2.2,2.6,39,0.00,,,0.00,VWS V14.00,2013-06-29 21:34:00,
2013-06-30 00:35:00,75.9,49.2,29.75,WSW,248,2.2,2.6,39,0.00,,,0.00,VWS V14.00,2013-06-29 21:35:00,
2013-06-30 00:37:00,75.7,49.0,29.75,WSW,248,4.9,4.9,39,0.00,,,0.00,VWS V14.00,2013-06-29 21:37:00,
2013-06-30 00:38:00,75.7,49.0,29.74,WSW,248,4.9,4.9,39,0.00,,,0.00,VWS V14.00,2013-06-29 21:38:00,
2013-06-30 00:39:00,75.7,49.0,29.75,WSW,248,4.9,4.9,39,0.00,,,0.00,VWS V14.00,2013-06-29 21:39:00,
2013-06-30 00:40:00,75.7,49.0,29.74,South,180,2.2,2.2,39,0.00,,,0.00,VWS V14.00,2013-06-29 21:40:00,
2013-06-30 00:42:00,75.7,49.0,29.74,WSW,248,3.5,3.5,39,0.00,,,0.00,VWS V14.00,2013-06-29 21:42:00,
2013-06-30 00:43:00,75.7,49.0,29.74,WSW,248,3.5,3.5,39,0.00,,,0.00,VWS V14.00,2013-06-29 21:43:00,
2013-06-30 00:44:00,75.7,49.0,29.74,WSW,248,2.9,3.5,39,0.00,,,0.00,VWS V14.00,2013-06-29 21:44:00,
2013-06-30 00:45:00,75.7,49.0,29.74,WSW,248,2.9,2.9,39,0.00,,,0.00,VWS V14.00,2013-06-29 21:45:00,
2013-06-30 00:46:00,75.7,49.0,29.74,WSW,248,2.9,2.9,39,0.00,,,0.00,VWS V14.00,2013-06-29 21:46:00,
2013-06-30 00:47:00,75.7,49.0,29.74,WSW,248,9.6,9.6,39,0.00,,,0.00,VWS V14.00,2013-06-29 21:47:00,
2013-06-30 00:49:00,75.7,49.0,29.74,West,270,5.1,9.6,39,0.00,,,0.00,VWS V14.00,2013-06-29 21:49:00,
2013-06-30 00:51:00,75.7,49.7,29.74,SSW,202,3.1,3.1,40,0.00,,,0.00,VWS V14.00,2013-06-29 21:51:00,
2013-06-30 00:52:00,75.7,49.7,29.75,SSW,202,7.3,7.3,40,0.00,,,0.00,VWS V14.00,2013-06-29 21:52:00,
2013-06-30 00:54:00,75.7,49.7,29.74,SSW,202,7.3,7.3,40,0.00,,,0.00,VWS V14.00,2013-06-29 21:54:00,
2013-06-30 00:55:00,75.7,49.7,29.75,SSW,202,7.3,7.3,40,0.00,,,0.00,VWS V14.00,2013-06-29 21:55:00,
2013-06-30 00:56:00,75.7,49.7,29.75,SSW,202,7.3,7.3,40,0.00,,,0.00,VWS V14.00,2013-06-29 21:56:00,
2013-06-30 00:58:00,75.5,49.5,29.75,WSW,248,4.4,7.3,40,0.00,,,0.00,VWS V14.00,2013-06-29 21:58:00,
2013-06-30 00:59:00,75.5,49.5,29.74,WSW,248,4.4,7.3,40,0.00,,,0.00,VWS V14.00,2013-06-29 21:59:00,
2013-06-30 01:00:00,75.5,49.5,29.75,SSE,158,2.9,2.9,40,0.00,,,0.00,VWS V14.00,2013-06-29 22:00:00,
2013-06-30 01:01:00,75.5,49.5,29.75,SSE,158,2.9,2.9,40,0.00,,,0.00,VWS V14.00,2013-06-29 22:01:00,
2013-06-30 01:03:00,75.5,49.5,29.75,SSW,202,2.9,2.9,40,0.00,,,0.00,VWS V14.00,2013-06-29 22:03:00,
2013-06-30 01:04:00,75.5,49.5,29.74,SW,225,5.3,5.3,40,0.00,,,0.00,VWS V14.00,2013-06-29 22:04:00,
2013-06-30 01:05:00,75.5,49.5,29.75,SW,225,3.3,3.3,40,0.00,,,0.00,VWS V14.00,2013-06-29 22:05:00,
2013-06-30 01:06:00,75.5,49.5,29.75,SW,225,3.3,3.3,40,0.00,,,0.00,VWS V14.00,2013-06-29 22:06:00,
2013-06-30 01:08:00,75.3,49.3,29.75,SSW,202,3.8,3.8,40,0.00,,,0.00,VWS V14.00,2013-06-29 22:08:00,
2013-06-30 01:09:00,75.3,49.3,29.75,SW,225,4.4,4.4,40,0.00,,,0.00,VWS V14.00,2013-06-29 22:09:00,
2013-06-30 01:10:00,75.3,50.0,29.75,SW,225,4.4,4.4,41,0.00,,,0.00,VWS V14.00,2013-06-29 22:10:00,
2013-06-30 01:11:00,75.3,50.0,29.75,SW,225,4.4,4.4,41,0.00,,,0.00,VWS V14.00,2013-06-29 22:11:00,
2013-06-30 01:13:00,75.3,50.0,29.75,SW,225,0.0,4.4,41,0.00,,,0.00,VWS V14.00,2013-06-29 22:13:00,
2013-06-30 01:14:00,75.3,50.0,29.74,SW,225,2.9,4.4,41,0.00,,,0.00,VWS V14.00,2013-06-29 22:14:00,
2013-06-30 01:15:00,75.3,50.0,29.75,SW,225,2.9,2.9,41,0.00,,,0.00,VWS V14.00,2013-06-29 22:15:00,
2013-06-30 01:16:00,75.3,50.0,29.75,SW,225,2.9,2.9,41,0.00,,,0.00,VWS V14.00,2013-06-29 22:16:00,
2013-06-30 01:18:00,75.3,50.0,29.74,SW,225,2.9,2.9,41,0.00,,,0.00,VWS V14.00,2013-06-29 22:18:00,
2013-06-30 01:19:00,75.3,50.0,29.75,SW,225,2.9,2.9,41,0.00,,,0.00,VWS V14.00,2013-06-29 22:19:00,
2013-06-30 01:20:00,75.2,49.9,29.75,SSW,202,0.0,0.0,41,0.00,,,0.00,VWS V14.00,2013-06-29 22:20:00,
2013-06-30 01:21:00,75.2,49.9,29.75,SSW,202,0.0,0.0,41,0.00,,,0.00,VWS V14.00,2013-06-29 22:21:00,
2013-06-30 01:23:00,75.0,49.7,29.75,SW,225,6.7,6.7,41,0.00,,,0.00,VWS V14.00,2013-06-29 22:23:00,
2013-06-30 01:24:00,75.0,49.7,29.75,SW,225,6.7,6.7,41,0.00,,,0.00,VWS V14.00,2013-06-29 22:24:00,
2013-06-30 01:25:00,75.2,49.9,29.75,WSW,248,2.4,2.4,41,0.00,,,0.00,VWS V14.00,2013-06-29 22:25:00,
2013-06-30 01:26:00,75.2,49.9,29.75,WSW,248,2.4,2.4,41,0.00,,,0.00,VWS V14.00,2013-06-29 22:26:00,
2013-06-30 01:28:00,75.0,50.4,29.74,South,180,3.3,3.3,42,0.00,,,0.00,VWS V14.00,2013-06-29 22:28:00,
2013-06-30 01:29:00,75.0,50.4,29.75,SSW,202,3.8,3.8,42,0.00,,,0.00,VWS V14.00,2013-06-29 22:29:00,
2013-06-30 01:30:00,75.0,50.4,29.75,SSW,202,3.8,3.8,42,0.00,,,0.00,VWS V14.00,2013-06-29 22:30:00,
2013-06-30 01:31:00,75.0,50.4,29.75,SSW,202,3.8,3.8,42,0.00,,,0.00,VWS V14.00,2013-06-29 22:31:00,
2013-06-30 01:32:00,75.0,50.4,29.75,SSW,202,3.8,3.8,42,0.00,,,0.00,VWS V14.00,2013-06-29 22:32:00,
2013-06-30 01:33:00,75.0,50.4,29.75,SW,225,6.0,6.0,42,0.00,,,0.00,VWS V14.00,2013-06-29 22:33:00,
2013-06-30 01:34:00,75.0,50.4,29.75,SW,225,6.0,6.0,42,0.00,,,0.00,VWS V14.00,2013-06-29 22:34:00,
2013-06-30 01:35:00,75.0,49.7,29.74,SW,225,4.2,4.2,41,0.00,,,0.00,VWS V14.00,2013-06-29 22:35:00,
2013-06-30 01:37:00,75.0,49.7,29.75,SW,225,4.2,4.2,41,0.00,,,0.00,VWS V14.00,2013-06-29 22:37:00,
2013-06-30 01:38:00,75.0,49.7,29.74,SSW,202,4.2,4.2,41,0.00,,,0.00,VWS V14.00,2013-06-29 22:38:00,
2013-06-30 01:40:00,75.0,49.7,29.75,WSW,248,1.1,4.2,41,0.00,,,0.00,VWS V14.00,2013-06-29 22:40:00,
2013-06-30 01:41:00,74.8,49.5,29.75,WSW,248,1.1,1.1,41,0.00,,,0.00,VWS V14.00,2013-06-29 22:41:00,
2013-06-30 01:42:00,74.8,49.5,29.75,WSW,248,1.1,1.1,41,0.00,,,0.00,VWS V14.00,2013-06-29 22:42:00,
2013-06-30 01:43:00,74.8,49.5,29.75,WNW,292,3.8,3.8,41,0.00,,,0.00,VWS V14.00,2013-06-29 22:43:00,
2013-06-30 01:45:00,74.8,49.5,29.75,WSW,248,4.2,4.2,41,0.00,,,0.00,VWS V14.00,2013-06-29 22:45:00,
2013-06-30 01:46:00,74.8,49.5,29.75,WSW,248,4.2,4.2,41,0.00,,,0.00,VWS V14.00,2013-06-29 22:46:00,
2013-06-30 01:47:00,74.8,49.5,29.74,WNW,292,1.5,4.2,41,0.00,,,0.00,VWS V14.00,2013-06-29 22:47:00,
2013-06-30 01:48:00,74.8,48.9,29.75,WNW,292,4.0,4.2,40,0.00,,,0.00,VWS V14.00,2013-06-29 22:48:00,
2013-06-30 01:50:00,74.8,48.9,29.75,WNW,292,4.0,4.2,40,0.00,,,0.00,VWS V14.00,2013-06-29 22:50:00,
2013-06-30 01:51:00,74.8,49.5,29.74,SSW,202,2.9,2.9,41,0.00,,,0.00,VWS V14.00,2013-06-29 22:51:00,
2013-06-30 01:52:00,74.8,49.5,29.75,SSW,202,2.9,2.9,41,0.00,,,0.00,VWS V14.00,2013-06-29 22:52:00,
2013-06-30 01:54:00,74.8,49.5,29.74,WSW,248,2.4,2.9,41,0.00,,,0.00,VWS V14.00,2013-06-29 22:54:00,
2013-06-30 01:55:00,74.8,49.5,29.74,SW,225,2.0,2.9,41,0.00,,,0.00,VWS V14.00,2013-06-29 22:55:00,
2013-06-30 01:56:00,74.8,49.5,29.74,SW,225,2.0,2.0,41,0.00,,,0.00,VWS V14.00,2013-06-29 22:56:00,
2013-06-30 01:57:00,74.8,49.5,29.74,West,270,1.3,2.0,41,0.00,,,0.00,VWS V14.00,2013-06-29 22:57:00,
2013-06-30 01:59:00,74.8,49.5,29.74,West,270,1.3,2.0,41,0.00,,,0.00,VWS V14.00,2013-06-29 22:59:00,
2013-06-30 02:00:00,74.8,49.5,29.74,SSW,202,0.0,2.0,41,0.00,,,0.00,VWS V14.00,2013-06-29 23:00:00,
2013-06-30 02:01:00,74.8,49.5,29.74,SSW,202,0.0,0.0,41,0.00,,,0.00,VWS V14.00,2013-06-29 23:01:00,
2013-06-30 02:02:00,74.8,49.5,29.74,WSW,248,2.4,2.4,41,0.00,,,0.00,VWS V14.00,2013-06-29 23:02:00,
2013-06-30 02:03:00,74.8,49.5,29.74,WSW,248,2.4,2.4,41,0.00,,,0.00,VWS V14.00,2013-06-29 23:03:00,
2013-06-30 02:04:00,74.8,49.5,29.74,South,180,4.9,4.9,41,0.00,,,0.00,VWS V14.00,2013-06-29 23:04:00,
2013-06-30 02:05:00,74.6,49.4,29.74,SW,225,1.5,1.5,41,0.00,,,0.00,VWS V14.00,2013-06-29 23:05:00,
2013-06-30 02:06:00,74.6,49.4,29.74,SW,225,1.5,1.5,41,0.00,,,0.00,VWS V14.00,2013-06-29 23:06:00,
2013-06-30 02:07:00,74.6,49.4,29.74,SW,225,4.4,4.4,41,0.00,,,0.00,VWS V14.00,2013-06-29 23:07:00,
2013-06-30 02:08:00,74.6,49.4,29.74,SW,225,4.4,4.4,41,0.00,,,0.00,VWS V14.00,2013-06-29 23:08:00,
2013-06-30 02:09:00,74.6,49.4,29.74,SW,225,4.4,4.4,41,0.00,,,0.00,VWS V14.00,2013-06-29 23:09:00,
2013-06-30 02:10:00,74.6,49.4,29.74,SW,225,2.9,2.9,41,0.00,,,0.00,VWS V14.00,2013-06-29 23:10:00,
2013-06-30 02:11:00,74.6,49.4,29.74,SW,225,2.9,2.9,41,0.00,,,0.00,VWS V14.00,2013-06-29 23:11:00,
2013-06-30 02:13:00,74.6,49.4,29.74,South,180,2.2,2.9,41,0.00,,,0.00,VWS V14.00,2013-06-29 23:13:00,
2013-06-30 02:14:00,74.6,49.4,29.74,South,180,2.2,2.9,41,0.00,,,0.00,VWS V14.00,2013-06-29 23:14:00,
2013-06-30 02:16:00,74.4,49.8,29.74,West,270,3.8,3.8,42,0.00,,,0.00,VWS V14.00,2013-06-29 23:16:00,
2013-06-30 02:18:00,74.6,50.0,29.73,West,270,8.7,8.7,42,0.00,,,0.00,VWS V14.00,2013-06-29 23:18:00,
2013-06-30 02:19:00,74.4,49.8,29.74,WNW,292,4.0,8.7,42,0.00,,,0.00,VWS V14.00,2013-06-29 23:19:00,
2013-06-30 02:21:00,74.4,49.8,29.73,SW,225,6.4,6.4,42,0.00,,,0.00,VWS V14.00,2013-06-29 23:21:00,
2013-06-30 02:23:00,74.4,49.8,29.74,West,270,6.4,6.4,42,0.00,,,0.00,VWS V14.00,2013-06-29 23:23:00,
2013-06-30 02:24:00,74.4,49.8,29.73,West,270,6.4,6.4,42,0.00,,,0.00,VWS V14.00,2013-06-29 23:24:00,
2013-06-30 02:26:00,74.4,49.8,29.73,SSW,202,7.3,7.3,42,0.00,,,0.00,VWS V14.00,2013-06-29 23:26:00,
2013-06-30 02:28:00,74.4,49.8,29.73,WSW,248,2.2,7.3,42,0.00,,,0.00,VWS V14.00,2013-06-29 23:28:00,
2013-06-30 02:30:00,74.4,49.8,29.73,SSW,202,0.0,7.3,42,0.00,,,0.00,VWS V14.00,2013-06-29 23:30:00,
2013-06-30 02:31:00,74.4,49.8,29.73,SSW,202,0.0,0.0,42,0.00,,,0.00,VWS V14.00,2013-06-29 23:31:00,
2013-06-30 02:33:00,74.4,49.8,29.73,NNW,338,0.0,0.0,42,0.00,,,0.00,VWS V14.00,2013-06-29 23:33:00,
2013-06-30 02:35:00,74.3,49.8,29.73,SW,225,2.9,2.9,42,0.00,,,0.00,VWS V14.00,2013-06-29 23:35:00,
2013-06-30 02:36:00,74.3,49.8,29.73,WNW,292,0.0,0.0,42,0.00,,,0.00,VWS V14.00,2013-06-29 23:36:00,
2013-06-30 02:38:00,74.3,49.8,29.73,South,180,1.3,1.3,42,0.00,,,0.00,VWS V14.00,2013-06-29 23:38:00,
2013-06-30 02:40:00,74.3,49.8,29.73,SSW,202,5.3,5.3,42,0.00,,,0.00,VWS V14.00,2013-06-29 23:40:00,
2013-06-30 02:41:00,74.3,49.8,29.73,SSW,202,5.3,5.3,42,0.00,,,0.00,VWS V14.00,2013-06-29 23:41:00,
2013-06-30 02:43:00,74.1,49.6,29.73,WSW,248,5.5,5.5,42,0.00,,,0.00,VWS V14.00,2013-06-29 23:43:00,
2013-06-30 02:44:00,74.1,49.6,29.73,WSW,248,5.5,5.5,42,0.00,,,0.00,VWS V14.00,2013-06-29 23:44:00,
2013-06-30 02:45:00,74.1,49.6,29.73,West,270,0.8,5.5,42,0.00,,,0.00,VWS V14.00,2013-06-29 23:45:00,
2013-06-30 02:46:00,74.1,49.6,29.73,WSW,248,5.5,5.5,42,0.00,,,0.00,VWS V14.00,2013-06-29 23:46:00,
2013-06-30 02:48:00,74.1,50.2,29.73,SSW,202,2.6,5.5,43,0.00,,,0.00,VWS V14.00,2013-06-29 23:48:00,
2013-06-30 02:49:00,74.1,50.2,29.73,SSW,202,2.6,5.5,43,0.00,,,0.00,VWS V14.00,2013-06-29 23:49:00,
2013-06-30 02:50:00,74.1,50.2,29.73,WSW,248,0.0,0.0,43,0.00,,,0.00,VWS V14.00,2013-06-29 23:50:00,
2013-06-30 02:51:00,74.1,50.2,29.73,WSW,248,0.0,0.0,43,0.00,,,0.00,VWS V14.00,2013-06-29 23:51:00,
2013-06-30 02:53:00,74.1,50.2,29.73,SSW,202,0.0,0.0,43,0.00,,,0.00,VWS V14.00,2013-06-29 23:53:00,
2013-06-30 02:54:00,74.1,50.2,29.73,SSW,202,0.0,0.0,43,0.00,,,0.00,VWS V14.00,2013-06-29 23:54:00,
2013-06-30 02:55:00,74.1,50.2,29.73,SW,225,3.3,3.3,43,0.00,,,0.00,VWS V14.00,2013-06-29 23:55:00,
2013-06-30 02:56:00,74.1,50.2,29.73,SW,225,3.3,3.3,43,0.00,,,0.00,VWS V14.00,2013-06-29 23:56:00,
2013-06-30 02:57:00,74.1,50.2,29.73,SW,225,3.3,3.3,43,0.00,,,0.00,VWS V14.00,2013-06-29 23:57:00,
2013-06-30 02:59:00,74.1,50.2,29.73,West,270,0.6,3.3,43,0.00,,,0.00,VWS V14.00,2013-06-29 23:59:00,
2013-06-30 03:01:00,74.1,50.2,29.73,SW,225,2.9,2.9,43,0.00,,,0.00,VWS V14.00,2013-06-30 00:01:00,
2013-06-30 03:02:00,74.1,50.2,29.73,SW,225,2.0,2.9,43,0.00,,,0.00,VWS V14.00,2013-06-30 00:02:00,
2013-06-30 03:04:00,74.1,50.2,29.73,ESE,112,0.0,2.9,43,0.00,,,0.00,VWS V14.00,2013-06-30 00:04:00,
2013-06-30 03:06:00,73.9,50.0,29.73,WSW,248,0.0,0.0,43,0.00,,,0.00,VWS V14.00,2013-06-30 00:06:00,
2013-06-30 03:07:00,73.9,50.0,29.73,WSW,248,0.0,0.0,43,0.00,,,0.00,VWS V14.00,2013-06-30 00:07:00,
2013-06-30 03:09:00,73.9,50.0,29.73,SSE,158,2.9,2.9,43,0.00,,,0.00,VWS V14.00,2013-06-30 00:09:00,
2013-06-30 03:11:00,73.9,50.0,29.74,SW,225,2.9,2.9,43,0.00,,,0.00,VWS V14.00,2013-06-30 00:11:00,
2013-06-30 03:12:00,73.9,50.0,29.74,SW,225,2.9,2.9,43,0.00,,,0.00,VWS V14.00,2013-06-30 00:12:00,
2013-06-30 03:14:00,73.9,50.0,29.73,SW,225,2.2,2.9,43,0.00,,,0.00,VWS V14.00,2013-06-30 00:14:00,
2013-06-30 03:16:00,73.9,50.6,29.73,South,180,4.4,4.4,44,0.00,,,0.00,VWS V14.00,2013-06-30 00:16:00,
2013-06-30 03:17:00,73.9,50.6,29.73,WNW,292,5.3,5.3,44,0.00,,,0.00,VWS V14.00,2013-06-30 00:17:00,
2013-06-30 03:19:00,73.9,50.6,29.73,West,270,2.4,5.3,44,0.00,,,0.00,VWS V14.00,2013-06-30 00:19:00,
2013-06-30 03:21:00,73.9,50.6,29.73,SSW,202,0.6,0.6,44,0.00,,,0.00,VWS V14.00,2013-06-30 00:21:00,
2013-06-30 03:22:00,73.9,50.6,29.73,SSW,202,0.6,0.6,44,0.00,,,0.00,VWS V14.00,2013-06-30 00:22:00,
2013-06-30 03:24:00,73.9,50.6,29.73,SW,225,5.8,5.8,44,0.00,,,0.00,VWS V14.00,2013-06-30 00:24:00,
2013-06-30 03:26:00,73.9,50.6,29.73,SW,225,1.1,1.1,44,0.00,,,0.00,VWS V14.00,2013-06-30 00:26:00,
2013-06-30 03:27:00,73.9,50.6,29.73,SW,225,1.1,1.1,44,0.00,,,0.00,VWS V14.00,2013-06-30 00:27:00,
2013-06-30 03:29:00,73.7,50.5,29.73,SW,225,1.1,1.1,44,0.00,,,0.00,VWS V14.00,2013-06-30 00:29:00,
2013-06-30 03:31:00,73.7,50.5,29.73,SSW,202,4.0,4.0,44,0.00,,,0.00,VWS V14.00,2013-06-30 00:31:00,
2013-06-30 03:32:00,73.7,50.5,29.73,SSW,202,4.0,4.0,44,0.00,,,0.00,VWS V14.00,2013-06-30 00:32:00,
2013-06-30 03:34:00,73.7,50.5,29.73,South,180,0.0,4.0,44,0.00,,,0.00,VWS V14.00,2013-06-30 00:34:00,
2013-06-30 03:36:00,73.5,50.3,29.73,SSW,202,3.5,3.5,44,0.00,,,0.00,VWS V14.00,2013-06-30 00:36:00,
2013-06-30 03:37:00,73.5,50.9,29.73,SSW,202,5.5,5.5,45,0.00,,,0.00,VWS V14.00,2013-06-30 00:37:00,
2013-06-30 03:39:00,73.5,50.9,29.73,WSW,248,4.0,5.5,45,0.00,,,0.00,VWS V14.00,2013-06-30 00:39:00,
2013-06-30 03:41:00,73.5,50.9,29.73,WSW,248,4.2,4.2,45,0.00,,,0.00,VWS V14.00,2013-06-30 00:41:00,
2013-06-30 03:42:00,73.5,50.9,29.72,WSW,248,4.2,4.2,45,0.00,,,0.00,VWS V14.00,2013-06-30 00:42:00,
2013-06-30 03:44:00,73.5,50.9,29.72,WSW,248,7.8,7.8,45,0.00,,,0.00,VWS V14.00,2013-06-30 00:44:00,
2013-06-30 03:47:00,73.5,50.9,29.73,SSW,202,4.2,7.8,45,0.00,,,0.00,VWS V14.00,2013-06-30 00:47:00,
2013-06-30 03:49:00,73.5,51.5,29.73,SSE,158,1.1,7.8,46,0.00,,,0.00,VWS V14.00,2013-06-30 00:49:00,
2013-06-30 03:52:00,73.4,51.4,29.73,SW,225,2.4,2.4,46,0.00,,,0.00,VWS V14.00,2013-06-30 00:52:00,
2013-06-30 03:54:00,73.4,51.4,29.73,WSW,248,5.3,5.3,46,0.00,,,0.00,VWS V14.00,2013-06-30 00:54:00,
2013-06-30 03:55:00,73.4,51.4,29.73,WSW,248,5.3,5.3,46,0.00,,,0.00,VWS V14.00,2013-06-30 00:55:00,
2013-06-30 03:57:00,73.4,52.0,29.73,SW,225,5.1,5.3,47,0.00,,,0.00,VWS V14.00,2013-06-30 00:57:00,
2013-06-30 03:58:00,73.4,52.0,29.73,SW,225,5.1,5.3,47,0.00,,,0.00,VWS V14.00,2013-06-30 00:58:00,
2013-06-30 04:00:00,73.4,52.0,29.73,SSW,202,2.9,5.3,47,0.00,,,0.00,VWS V14.00,2013-06-30 01:00:00,
2013-06-30 04:02:00,73.2,51.8,29.73,WSW,248,4.0,4.0,47,0.00,,,0.00,VWS V14.00,2013-06-30 01:02:00,
2013-06-30 04:03:00,73.2,51.8,29.73,WSW,248,4.0,4.0,47,0.00,,,0.00,VWS V14.00,2013-06-30 01:03:00,
2013-06-30 04:05:00,73.2,51.8,29.72,WSW,248,5.8,5.8,47,0.00,,,0.00,VWS V14.00,2013-06-30 01:05:00,
2013-06-30 04:07:00,73.2,51.8,29.73,SW,225,0.8,0.8,47,0.00,,,0.00,VWS V14.00,2013-06-30 01:07:00,
2013-06-30 04:08:00,73.2,52.4,29.73,SSW,202,1.1,1.1,48,0.00,,,0.00,VWS V14.00,2013-06-30 01:08:00,
2013-06-30 04:10:00,73.2,52.4,29.73,SW,225,2.9,2.9,48,0.00,,,0.00,VWS V14.00,2013-06-30 01:10:00,
2013-06-30 04:12:00,73.2,52.4,29.73,SW,225,4.6,4.6,48,0.00,,,0.00,VWS V14.00,2013-06-30 01:12:00,
2013-06-30 04:13:00,73.2,52.4,29.73,SW,225,4.6,4.6,48,0.00,,,0.00,VWS V14.00,2013-06-30 01:13:00,
2013-06-30 04:15:00,73.2,52.4,29.73,ESE,112,0.0,4.6,48,0.00,,,0.00,VWS V14.00,2013-06-30 01:15:00,
2013-06-30 04:17:00,73.2,52.4,29.73,WSW,248,1.3,1.3,48,0.00,,,0.00,VWS V14.00,2013-06-30 01:17:00,
2013-06-30 04:18:00,73.2,52.4,29.73,WSW,248,1.3,1.3,48,0.00,,,0.00,VWS V14.00,2013-06-30 01:18:00,
2013-06-30 04:20:00,73.2,52.9,29.73,SSW,202,0.8,1.3,49,0.00,,,0.00,VWS V14.00,2013-06-30 01:20:00,
2013-06-30 04:22:00,73.2,52.9,29.73,SSW,202,0.0,0.0,49,0.00,,,0.00,VWS V14.00,2013-06-30 01:22:00,
2013-06-30 04:23:00,73.2,52.9,29.73,SW,225,2.0,2.0,49,0.00,,,0.00,VWS V14.00,2013-06-30 01:23:00,
2013-06-30 04:25:00,73.0,52.7,29.73,SW,225,0.0,2.0,49,0.00,,,0.00,VWS V14.00,2013-06-30 01:25:00,
2013-06-30 04:27:00,73.0,52.7,29.73,SSW,202,2.9,2.9,49,0.00,,,0.00,VWS V14.00,2013-06-30 01:27:00,
2013-06-30 04:28:00,73.0,52.7,29.73,SSW,202,2.9,2.9,49,0.00,,,0.00,VWS V14.00,2013-06-30 01:28:00,
2013-06-30 04:30:00,73.0,52.7,29.73,SSW,202,0.0,2.9,49,0.00,,,0.00,VWS V14.00,2013-06-30 01:30:00,
2013-06-30 04:32:00,73.0,52.7,29.73,SW,225,2.0,2.0,49,0.00,,,0.00,VWS V14.00,2013-06-30 01:32:00,
2013-06-30 04:33:00,73.0,52.7,29.73,SW,225,2.0,2.0,49,0.00,,,0.00,VWS V14.00,2013-06-30 01:33:00,
2013-06-30 04:35:00,72.8,52.5,29.73,ESE,112,0.0,2.0,49,0.00,,,0.00,VWS V14.00,2013-06-30 01:35:00,
2013-06-30 04:37:00,72.8,53.1,29.73,ENE,68,1.5,1.5,50,0.00,,,0.00,VWS V14.00,2013-06-30 01:37:00,
2013-06-30 04:38:00,72.8,53.1,29.73,SW,225,2.4,2.4,50,0.00,,,0.00,VWS V14.00,2013-06-30 01:38:00,
2013-06-30 04:40:00,72.8,53.1,29.73,SW,225,2.6,2.6,50,0.00,,,0.00,VWS V14.00,2013-06-30 01:40:00,
2013-06-30 04:42:00,72.6,52.9,29.73,WSW,248,0.8,2.6,50,0.00,,,0.00,VWS V14.00,2013-06-30 01:42:00,
2013-06-30 04:43:00,72.6,52.9,29.73,SSW,202,0.0,2.6,50,0.00,,,0.00,VWS V14.00,2013-06-30 01:43:00,
2013-06-30 04:44:00,72.6,52.9,29.73,SSW,202,0.0,2.6,50,0.00,,,0.00,VWS V14.00,2013-06-30 01:44:00,
2013-06-30 04:45:00,72.6,52.9,29.73,SSW,202,0.0,2.6,50,0.00,,,0.00,VWS V14.00,2013-06-30 01:45:00,
2013-06-30 04:47:00,72.6,52.9,29.73,SW,225,4.6,4.6,50,0.00,,,0.00,VWS V14.00,2013-06-30 01:47:00,
2013-06-30 04:48:00,72.6,52.9,29.73,SSW,202,0.8,4.6,50,0.00,,,0.00,VWS V14.00,2013-06-30 01:48:00,
2013-06-30 04:49:00,72.6,52.9,29.73,SSW,202,0.8,4.6,50,0.00,,,0.00,VWS V14.00,2013-06-30 01:49:00,
2013-06-30 04:50:00,72.6,52.9,29.73,WSW,248,0.0,0.0,50,0.00,,,0.00,VWS V14.00,2013-06-30 01:50:00,
2013-06-30 04:52:00,72.5,52.8,29.73,SSW,202,2.2,2.2,50,0.00,,,0.00,VWS V14.00,2013-06-30 01:52:00,
2013-06-30 04:53:00,72.5,52.8,29.73,SSW,202,2.2,2.2,50,0.00,,,0.00,VWS V14.00,2013-06-30 01:53:00,
2013-06-30 04:54:00,72.5,52.8,29.73,SSW,202,2.2,2.2,50,0.00,,,0.00,VWS V14.00,2013-06-30 01:54:00,
2013-06-30 04:55:00,72.5,52.8,29.73,SW,225,0.0,0.0,50,0.00,,,0.00,VWS V14.00,2013-06-30 01:55:00,
2013-06-30 04:57:00,72.5,52.8,29.73,SW,225,3.1,3.1,50,0.00,,,0.00,VWS V14.00,2013-06-30 01:57:00,
2013-06-30 04:59:00,72.5,52.8,29.73,WSW,248,0.0,3.1,50,0.00,,,0.00,VWS V14.00,2013-06-30 01:59:00,
2013-06-30 05:00:00,72.5,52.8,29.73,WSW,248,0.0,3.1,50,0.00,,,0.00,VWS V14.00,2013-06-30 02:00:00,
2013-06-30 05:01:00,72.5,52.8,29.73,WSW,248,0.0,0.0,50,0.00,,,0.00,VWS V14.00,2013-06-30 02:01:00,
2013-06-30 05:02:00,72.5,52.8,29.73,NW,315,0.8,0.8,50,0.00,,,0.00,VWS V14.00,2013-06-30 02:02:00,
2013-06-30 05:04:00,72.3,52.6,29.73,WNW,292,0.8,0.8,50,0.00,,,0.00,VWS V14.00,2013-06-30 02:04:00,
2013-06-30 05:05:00,72.3,52.6,29.73,West,270,1.5,1.5,50,0.00,,,0.00,VWS V14.00,2013-06-30 02:05:00,
2013-06-30 05:06:00,72.3,52.6,29.73,West,270,1.5,1.5,50,0.00,,,0.00,VWS V14.00,2013-06-30 02:06:00,
2013-06-30 05:07:00,72.3,52.6,29.73,SW,225,0.0,1.5,50,0.00,,,0.00,VWS V14.00,2013-06-30 02:07:00,
2013-06-30 05:09:00,72.3,52.6,29.73,SW,225,0.0,1.5,50,0.00,,,0.00,VWS V14.00,2013-06-30 02:09:00,
2013-06-30 05:11:00,72.3,52.6,29.73,ENE,68,0.8,0.8,50,0.00,,,0.00,VWS V14.00,2013-06-30 02:11:00,
2013-06-30 05:12:00,72.3,52.1,29.73,SSW,202,2.9,2.9,49,0.00,,,0.00,VWS V14.00,2013-06-30 02:12:00,
2013-06-30 05:14:00,72.1,51.9,29.73,WSW,248,4.2,4.2,49,0.00,,,0.00,VWS V14.00,2013-06-30 02:14:00,
2013-06-30 05:16:00,72.1,51.9,29.73,WSW,248,4.2,4.2,49,0.00,,,0.00,VWS V14.00,2013-06-30 02:16:00,
2013-06-30 05:18:00,72.1,51.9,29.73,SSW,202,4.4,4.4,49,0.00,,,0.00,VWS V14.00,2013-06-30 02:18:00,
2013-06-30 05:19:00,72.1,51.3,29.73,WSW,248,1.5,4.4,48,0.00,,,0.00,VWS V14.00,2013-06-30 02:19:00,
2013-06-30 05:20:00,72.1,51.3,29.73,WSW,248,1.5,4.4,48,0.00,,,0.00,VWS V14.00,2013-06-30 02:20:00,
2013-06-30 05:21:00,72.1,51.3,29.72,West,270,1.7,1.7,48,0.00,,,0.00,VWS V14.00,2013-06-30 02:21:00,
2013-06-30 05:23:00,72.1,51.3,29.73,SW,225,0.6,1.7,48,0.00,,,0.00,VWS V14.00,2013-06-30 02:23:00,
2013-06-30 05:24:00,72.1,51.3,29.73,SW,225,0.6,1.7,48,0.00,,,0.00,VWS V14.00,2013-06-30 02:24:00,
2013-06-30 05:25:00,72.1,50.8,29.73,SW,225,6.2,6.2,47,0.00,,,0.00,VWS V14.00,2013-06-30 02:25:00,
2013-06-30 05:26:00,72.1,50.8,29.73,SW,225,6.2,6.2,47,0.00,,,0.00,VWS V14.00,2013-06-30 02:26:00,
2013-06-30 05:28:00,72.1,50.8,29.73,SSW,202,0.0,6.2,47,0.00,,,0.00,VWS V14.00,2013-06-30 02:28:00,
2013-06-30 05:29:00,72.1,50.8,29.73,SSE,158,0.0,6.2,47,0.00,,,0.00,VWS V14.00,2013-06-30 02:29:00,
2013-06-30 05:30:00,72.1,50.8,29.73,SSE,158,0.0,6.2,47,0.00,,,0.00,VWS V14.00,2013-06-30 02:30:00,
2013-06-30 05:31:00,72.1,50.8,29.73,SSE,158,0.0,0.0,47,0.00,,,0.00,VWS V14.00,2013-06-30 02:31:00,
2013-06-30 05:33:00,72.1,50.8,29.73,SW,225,4.4,4.4,47,0.00,,,0.00,VWS V14.00,2013-06-30 02:33:00,
2013-06-30 05:34:00,72.1,50.8,29.73,WSW,248,2.6,4.4,47,0.00,,,0.00,VWS V14.00,2013-06-30 02:34:00,
2013-06-30 05:35:00,72.1,50.8,29.73,WSW,248,2.6,4.4,47,0.00,,,0.00,VWS V14.00,2013-06-30 02:35:00,
2013-06-30 05:36:00,72.1,50.8,29.73,WSW,248,2.9,2.9,47,0.00,,,0.00,VWS V14.00,2013-06-30 02:36:00,
2013-06-30 05:38:00,72.1,50.8,29.73,WSW,248,0.0,2.9,47,0.00,,,0.00,VWS V14.00,2013-06-30 02:38:00,
2013-06-30 05:39:00,72.1,50.8,29.73,WSW,248,0.0,2.9,47,0.00,,,0.00,VWS V14.00,2013-06-30 02:39:00,
2013-06-30 05:40:00,72.1,50.8,29.73,SSW,202,0.0,2.9,47,0.00,,,0.00,VWS V14.00,2013-06-30 02:40:00,
2013-06-30 05:41:00,72.1,50.8,29.73,SSW,202,0.0,0.0,47,0.00,,,0.00,VWS V14.00,2013-06-30 02:41:00,
2013-06-30 05:43:00,72.1,50.8,29.73,SW,225,3.5,3.5,47,0.00,,,0.00,VWS V14.00,2013-06-30 02:43:00,
2013-06-30 05:44:00,72.1,50.8,29.73,SW,225,3.5,3.5,47,0.00,,,0.00,VWS V14.00,2013-06-30 02:44:00,
2013-06-30 05:45:00,72.1,50.8,29.73,SW,225,3.5,3.5,47,0.00,,,0.00,VWS V14.00,2013-06-30 02:45:00,
2013-06-30 05:46:00,72.1,50.8,29.73,SW,225,3.5,3.5,47,0.00,,,0.00,VWS V14.00,2013-06-30 02:46:00,
2013-06-30 05:48:00,72.1,50.8,29.73,NW,315,0.0,3.5,47,0.00,,,0.00,VWS V14.00,2013-06-30 02:48:00,
2013-06-30 05:49:00,72.1,50.8,29.73,NW,315,0.0,3.5,47,0.00,,,0.00,VWS V14.00,2013-06-30 02:49:00,
2013-06-30 05:50:00,72.1,50.2,29.73,WSW,248,2.0,3.5,46,0.00,,,0.00,VWS V14.00,2013-06-30 02:50:00,
2013-06-30 05:51:00,72.1,50.2,29.73,WSW,248,2.0,2.0,46,0.00,,,0.00,VWS V14.00,2013-06-30 02:51:00,
2013-06-30 05:52:00,72.1,50.2,29.73,WSW,248,2.0,2.0,46,0.00,,,0.00,VWS V14.00,2013-06-30 02:52:00,
2013-06-30 05:54:00,72.1,50.2,29.73,SW,225,4.6,4.6,46,0.00,,,0.00,VWS V14.00,2013-06-30 02:54:00,
2013-06-30 05:55:00,72.1,50.2,29.73,SW,225,3.5,3.5,46,0.00,,,0.00,VWS V14.00,2013-06-30 02:55:00,
2013-06-30 05:56:00,72.1,50.2,29.73,SW,225,3.5,3.5,46,0.00,,,0.00,VWS V14.00,2013-06-30 02:56:00,
2013-06-30 05:57:00,72.1,50.2,29.73,West,270,0.0,3.5,46,0.00,,,0.00,VWS V14.00,2013-06-30 02:57:00,
2013-06-30 05:59:00,72.1,50.2,29.73,SW,225,2.0,3.5,46,0.00,,,0.00,VWS V14.00,2013-06-30 02:59:00,
2013-06-30 06:00:00,72.1,50.2,29.73,SW,225,2.0,2.0,46,0.00,,,0.00,VWS V14.00,2013-06-30 03:00:00,
2013-06-30 06:01:00,72.1,50.2,29.73,SW,225,2.0,2.0,46,0.00,,,0.00,VWS V14.00,2013-06-30 03:01:00,
2013-06-30 06:02:00,72.1,50.2,29.73,West,270,2.2,2.2,46,0.00,,,0.00,VWS V14.00,2013-06-30 03:02:00,
2013-06-30 06:04:00,72.1,50.2,29.73,SW,225,2.4,2.4,46,0.00,,,0.00,VWS V14.00,2013-06-30 03:04:00,
2013-06-30 06:06:00,72.1,50.2,29.73,WSW,248,3.3,3.3,46,0.00,,,0.00,VWS V14.00,2013-06-30 03:06:00,
2013-06-30 06:07:00,72.1,50.2,29.73,WSW,248,3.3,3.3,46,0.00,,,0.00,VWS V14.00,2013-06-30 03:07:00,
2013-06-30 06:09:00,72.1,50.2,29.73,SW,225,3.5,3.5,46,0.00,,,0.00,VWS V14.00,2013-06-30 03:09:00,
2013-06-30 06:10:00,72.1,50.2,29.73,WSW,248,2.2,3.5,46,0.00,,,0.00,VWS V14.00,2013-06-30 03:10:00,
2013-06-30 06:11:00,72.1,50.2,29.73,WSW,248,2.2,2.2,46,0.00,,,0.00,VWS V14.00,2013-06-30 03:11:00,
2013-06-30 06:12:00,72.1,50.2,29.73,SW,225,2.2,2.2,46,0.00,,,0.00,VWS V14.00,2013-06-30 03:12:00,
2013-06-30 06:14:00,72.1,50.8,29.73,SW,225,4.4,4.4,47,0.00,,,0.00,VWS V14.00,2013-06-30 03:14:00,
2013-06-30 06:15:00,72.1,50.8,29.73,SW,225,4.4,4.4,47,0.00,,,0.00,VWS V14.00,2013-06-30 03:15:00,
2013-06-30 06:16:00,72.1,50.8,29.73,SW,225,4.4,4.4,47,0.00,,,0.00,VWS V14.00,2013-06-30 03:16:00,
2013-06-30 06:17:00,72.1,50.8,29.73,SW,225,4.0,4.4,47,0.00,,,0.00,VWS V14.00,2013-06-30 03:17:00,
2013-06-30 06:19:00,72.3,51.0,29.73,SSW,202,4.4,4.4,47,0.00,,,0.00,VWS V14.00,2013-06-30 03:19:00,
2013-06-30 06:20:00,72.3,51.0,29.73,SSW,202,4.4,4.4,47,0.00,,,0.00,VWS V14.00,2013-06-30 03:20:00,
2013-06-30 06:21:00,72.1,50.8,29.73,SW,225,1.3,1.3,47,0.00,,,0.00,VWS V14.00,2013-06-30 03:21:00,
2013-06-30 06:22:00,72.1,50.8,29.73,SW,225,1.3,1.3,47,0.00,,,0.00,VWS V14.00,2013-06-30 03:22:00,
2013-06-30 06:24:00,72.1,50.8,29.73,WSW,248,2.0,2.0,47,0.00,,,0.00,VWS V14.00,2013-06-30 03:24:00,
2013-06-30 06:25:00,72.1,50.8,29.73,SW,225,3.5,3.5,47,0.00,,,0.00,VWS V14.00,2013-06-30 03:25:00,
2013-06-30 06:26:00,72.1,50.8,29.73,SW,225,3.5,3.5,47,0.00,,,0.00,VWS V14.00,2013-06-30 03:26:00,
2013-06-30 06:27:00,72.1,51.3,29.73,SW,225,3.5,3.5,48,0.00,,,0.00,VWS V14.00,2013-06-30 03:27:00,
2013-06-30 06:29:00,72.1,51.3,29.73,SW,225,7.8,7.8,48,0.00,,,0.00,VWS V14.00,2013-06-30 03:29:00,
2013-06-30 06:30:00,72.1,51.3,29.73,SW,225,7.8,7.8,48,0.00,,,0.00,VWS V14.00,2013-06-30 03:30:00,
2013-06-30 06:31:00,72.1,51.3,29.73,SW,225,7.8,7.8,48,0.00,,,0.00,VWS V14.00,2013-06-30 03:31:00,
2013-06-30 06:32:00,72.1,51.3,29.73,WSW,248,1.5,7.8,48,0.00,,,0.00,VWS V14.00,2013-06-30 03:32:00,
2013-06-30 06:34:00,72.1,51.3,29.73,SSW,202,2.2,7.8,48,0.00,,,0.00,VWS V14.00,2013-06-30 03:34:00,
2013-06-30 06:35:00,72.1,51.3,29.73,SSW,202,2.2,7.8,48,0.00,,,0.00,VWS V14.00,2013-06-30 03:35:00,
2013-06-30 06:36:00,72.1,51.3,29.73,SW,225,4.9,4.9,48,0.00,,,0.00,VWS V14.00,2013-06-30 03:36:00,
2013-06-30 06:37:00,72.1,51.3,29.73,SSW,202,4.2,4.9,48,0.00,,,0.00,VWS V14.00,2013-06-30 03:37:00,
2013-06-30 06:39:00,72.1,51.3,29.73,West,270,3.1,4.9,48,0.00,,,0.00,VWS V14.00,2013-06-30 03:39:00,
2013-06-30 06:40:00,72.1,51.3,29.73,West,270,3.1,4.9,48,0.00,,,0.00,VWS V14.00,2013-06-30 03:40:00,
2013-06-30 06:41:00,72.1,51.3,29.73,West,270,3.1,3.1,48,0.00,,,0.00,VWS V14.00,2013-06-30 03:41:00,
2013-06-30 06:42:00,72.1,51.3,29.73,West,270,2.4,3.1,48,0.00,,,0.00,VWS V14.00,2013-06-30 03:42:00,
2013-06-30 06:44:00,72.1,51.3,29.73,SSE,158,4.4,4.4,48,0.00,,,0.00,VWS V14.00,2013-06-30 03:44:00,
2013-06-30 06:45:00,72.1,51.3,29.73,SSE,158,4.4,4.4,48,0.00,,,0.00,VWS V14.00,2013-06-30 03:45:00,
2013-06-30 06:46:00,72.1,51.3,29.73,SSE,158,4.4,4.4,48,0.00,,,0.00,VWS V14.00,2013-06-30 03:46:00,
2013-06-30 06:47:00,72.1,51.9,29.73,WSW,248,6.2,6.2,49,0.00,,,0.00,VWS V14.00,2013-06-30 03:47:00,
2013-06-30 06:49:00,72.1,51.9,29.73,WSW,248,0.0,6.2,49,0.00,,,0.00,VWS V14.00,2013-06-30 03:49:00,
2013-06-30 06:50:00,72.1,51.9,29.73,West,270,2.2,2.2,49,0.00,,,0.00,VWS V14.00,2013-06-30 03:50:00,
2013-06-30 06:51:00,72.1,51.9,29.73,West,270,2.2,2.2,49,0.00,,,0.00,VWS V14.00,2013-06-30 03:51:00,
2013-06-30 06:52:00,72.1,51.9,29.73,West,270,2.2,2.2,49,0.00,,,0.00,VWS V14.00,2013-06-30 03:52:00,
2013-06-30 06:54:00,72.1,52.5,29.73,West,270,0.8,2.2,50,0.00,,,0.00,VWS V14.00,2013-06-30 03:54:00,
2013-06-30 06:55:00,72.1,52.5,29.73,West,270,0.8,0.8,50,0.00,,,0.00,VWS V14.00,2013-06-30 03:55:00,
2013-06-30 06:56:00,72.1,52.5,29.73,West,270,0.8,0.8,50,0.00,,,0.00,VWS V14.00,2013-06-30 03:56:00,
2013-06-30 06:57:00,72.1,52.5,29.73,SW,225,4.6,4.6,50,0.00,,,0.00,VWS V14.00,2013-06-30 03:57:00,
2013-06-30 06:59:00,72.1,53.0,29.73,WNW,292,1.1,4.6,51,0.00,,,0.00,VWS V14.00,2013-06-30 03:59:00,
2013-06-30 07:00:00,72.1,53.0,29.73,WNW,292,1.1,1.1,51,0.00,,,0.00,VWS V14.00,2013-06-30 04:00:00,
2013-06-30 07:01:00,72.1,53.0,29.73,WNW,292,1.1,1.1,51,0.00,,,0.00,VWS V14.00,2013-06-30 04:01:00,
2013-06-30 07:06:00,72.5,53.4,29.73,SW,225,2.9,2.9,51,0.00,,,0.00,VWS V14.00,2013-06-30 04:06:00,
2013-06-30 07:11:00,72.8,53.1,29.73,SSW,202,2.0,2.0,50,0.00,,,0.00,VWS V14.00,2013-06-30 04:11:00,
2013-06-30 07:16:00,73.0,52.7,29.73,SSW,202,1.5,1.5,49,0.00,,,0.00,VWS V14.00,2013-06-30 04:16:00,
2013-06-30 07:21:00,73.2,52.4,29.73,West,270,2.4,2.4,48,0.00,,,0.00,VWS V14.00,2013-06-30 04:21:00,
2013-06-30 07:26:00,73.5,52.6,29.73,SW,225,0.0,0.0,48,0.00,,,0.00,VWS V14.00,2013-06-30 04:26:00,
2013-06-30 07:31:00,73.7,52.8,29.74,ESE,112,0.0,0.0,48,0.00,,,0.00,VWS V14.00,2013-06-30 04:31:00,
2013-06-30 07:36:00,74.1,53.2,29.73,SW,225,3.8,3.8,48,0.00,,,0.00,VWS V14.00,2013-06-30 04:36:00,
2013-06-30 07:41:00,74.4,53.5,29.73,WSW,248,4.9,4.9,48,0.00,,,0.00,VWS V14.00,2013-06-30 04:41:00,
2013-06-30 07:46:00,74.8,53.2,29.74,NW,315,0.8,0.8,47,0.00,,,0.00,VWS V14.00,2013-06-30 04:46:00,
2013-06-30 07:51:00,74.8,53.2,29.73,SSW,202,2.0,2.0,47,0.00,,,0.00,VWS V14.00,2013-06-30 04:51:00,
2013-06-30 07:52:00,74.8,53.2,29.73,SSW,202,2.0,2.0,47,0.00,,,0.00,VWS V14.00,2013-06-30 04:52:00,
2013-06-30 07:56:00,75.3,53.1,29.73,South,180,3.5,3.5,46,0.00,,,0.00,VWS V14.00,2013-06-30 04:56:00,
2013-06-30 07:57:00,75.3,53.1,29.73,South,180,3.5,3.5,46,0.00,,,0.00,VWS V14.00,2013-06-30 04:57:00,
2013-06-30 08:01:00,75.5,53.3,29.73,WNW,292,4.9,5.3,46,0.00,,,0.00,VWS V14.00,2013-06-30 05:01:00,
2013-06-30 08:02:00,75.5,53.3,29.73,WNW,292,4.9,5.3,46,0.00,,,0.00,VWS V14.00,2013-06-30 05:02:00,
2013-06-30 08:06:00,75.9,53.7,29.73,WNW,292,1.7,1.7,46,0.00,,,0.00,VWS V14.00,2013-06-30 05:06:00,
2013-06-30 08:07:00,75.9,53.7,29.73,WNW,292,1.7,1.7,46,0.00,,,0.00,VWS V14.00,2013-06-30 05:07:00,
2013-06-30 08:11:00,76.6,53.7,29.74,SW,225,9.3,9.3,45,0.00,,,0.00,VWS V14.00,2013-06-30 05:11:00,
2013-06-30 08:12:00,76.6,53.7,29.74,SW,225,9.3,9.3,45,0.00,,,0.00,VWS V14.00,2013-06-30 05:12:00,
2013-06-30 08:16:00,76.6,53.7,29.74,West,270,3.5,3.5,45,0.00,,,0.00,VWS V14.00,2013-06-30 05:16:00,
2013-06-30 08:17:00,76.6,53.7,29.74,West,270,3.5,3.5,45,0.00,,,0.00,VWS V14.00,2013-06-30 05:17:00,
2013-06-30 08:22:00,76.8,53.9,29.74,WSW,248,2.2,2.2,45,0.00,,,0.00,VWS V14.00,2013-06-30 05:22:00,
2013-06-30 08:27:00,77.5,53.3,29.74,SSW,202,2.9,4.2,43,0.00,,,0.00,VWS V14.00,2013-06-30 05:27:00,
2013-06-30 08:28:00,77.5,53.3,29.74,SSW,202,2.9,4.2,43,0.00,,,0.00,VWS V14.00,2013-06-30 05:28:00,
2013-06-30 08:32:00,77.5,53.9,29.74,WSW,248,2.9,2.9,44,0.00,,,0.00,VWS V14.00,2013-06-30 05:32:00,
2013-06-30 08:33:00,77.5,53.9,29.74,WSW,248,5.1,5.1,44,0.00,,,0.00,VWS V14.00,2013-06-30 05:33:00,
2013-06-30 08:37:00,77.7,53.5,29.74,SW,225,4.4,4.4,43,0.00,,,0.00,VWS V14.00,2013-06-30 05:37:00,
2013-06-30 08:38:00,77.9,53.6,29.74,SW,225,2.4,4.4,43,0.00,,,0.00,VWS V14.00,2013-06-30 05:38:00,
2013-06-30 08:42:00,78.6,53.6,29.74,SSE,158,2.2,5.1,42,0.00,,,0.00,VWS V14.00,2013-06-30 05:42:00,
2013-06-30 08:43:00,78.6,53.6,29.74,SSE,158,2.2,5.1,42,0.00,,,0.00,VWS V14.00,2013-06-30 05:43:00,
2013-06-30 08:47:00,78.6,53.6,29.74,SW,225,2.9,2.9,42,0.00,,,0.00,VWS V14.00,2013-06-30 05:47:00,
2013-06-30 08:48:00,78.6,53.6,29.75,SW,225,2.9,2.9,42,0.00,,,0.00,VWS V14.00,2013-06-30 05:48:00,
2013-06-30 08:52:00,78.8,53.8,29.74,West,270,0.0,0.8,42,0.00,,,0.00,VWS V14.00,2013-06-30 05:52:00,
2013-06-30 08:53:00,78.8,53.8,29.74,West,270,0.0,0.8,42,0.00,,,0.00,VWS V14.00,2013-06-30 05:53:00,
2013-06-30 08:57:00,78.9,53.9,29.75,SW,225,2.0,6.4,42,0.00,,,0.00,VWS V14.00,2013-06-30 05:57:00,
2013-06-30 08:58:00,78.9,53.9,29.75,SW,225,2.0,6.4,42,0.00,,,0.00,VWS V14.00,2013-06-30 05:58:00,
2013-06-30 09:02:00,78.9,52.5,29.75,WSW,248,4.4,4.4,40,0.00,,,0.00,VWS V14.00,2013-06-30 06:02:00,
2013-06-30 09:03:00,78.9,52.5,29.75,WSW,248,4.4,4.4,40,0.00,,,0.00,VWS V14.00,2013-06-30 06:03:00,
2013-06-30 09:07:00,79.5,52.4,29.75,SW,225,5.1,5.5,39,0.00,,,0.00,VWS V14.00,2013-06-30 06:07:00,
2013-06-30 09:08:00,79.5,52.4,29.75,SW,225,5.1,5.5,39,0.00,,,0.00,VWS V14.00,2013-06-30 06:08:00,
2013-06-30 09:12:00,79.8,52.7,29.75,WNW,292,0.6,6.7,39,0.00,,,0.00,VWS V14.00,2013-06-30 06:12:00,
2013-06-30 09:13:00,79.8,52.7,29.75,WNW,292,0.6,6.7,39,0.00,,,0.00,VWS V14.00,2013-06-30 06:13:00,
2013-06-30 09:17:00,80.0,52.8,29.74,SW,225,4.9,9.8,39,0.00,,,0.00,VWS V14.00,2013-06-30 06:17:00,
2013-06-30 09:18:00,80.0,52.8,29.74,SW,225,4.9,9.8,39,0.00,,,0.00,VWS V14.00,2013-06-30 06:18:00,
2013-06-30 09:23:00,80.2,52.3,29.74,South,180,7.1,7.1,38,0.00,,,0.00,VWS V14.00,2013-06-30 06:23:00,
2013-06-30 09:28:00,80.4,52.5,29.75,NNW,338,1.5,3.3,38,0.00,,,0.00,VWS V14.00,2013-06-30 06:28:00,
2013-06-30 09:33:00,80.4,52.5,29.75,North,0,0.0,2.9,38,0.00,,,0.00,VWS V14.00,2013-06-30 06:33:00,
2013-06-30 09:38:00,80.4,51.0,29.75,SSW,202,1.1,6.9,36,0.00,,,0.00,VWS V14.00,2013-06-30 06:38:00,
2013-06-30 09:39:00,80.4,51.0,29.75,SSW,202,1.1,6.9,36,0.00,,,0.00,VWS V14.00,2013-06-30 06:39:00,
2013-06-30 09:43:00,80.6,51.2,29.74,SW,225,1.5,11.8,36,0.00,,,0.00,VWS V14.00,2013-06-30 06:43:00,
2013-06-30 09:44:00,80.7,51.3,29.75,West,270,0.0,11.8,36,0.00,,,0.00,VWS V14.00,2013-06-30 06:44:00,
2013-06-30 09:48:00,80.7,50.5,29.75,SW,225,5.1,5.1,35,0.00,,,0.00,VWS V14.00,2013-06-30 06:48:00,
2013-06-30 09:49:00,80.7,50.5,29.75,SW,225,5.1,5.1,35,0.00,,,0.00,VWS V14.00,2013-06-30 06:49:00,
2013-06-30 09:53:00,81.1,50.1,29.75,WSW,248,3.5,7.3,34,0.00,,,0.00,VWS V14.00,2013-06-30 06:53:00,
2013-06-30 09:54:00,81.1,50.1,29.74,WSW,248,3.5,7.3,34,0.00,,,0.00,VWS V14.00,2013-06-30 06:54:00,
2013-06-30 09:58:00,81.1,50.1,29.74,SW,225,4.2,4.2,34,0.00,,,0.00,VWS V14.00,2013-06-30 06:58:00,
2013-06-30 09:59:00,81.1,50.1,29.74,WSW,248,3.8,4.2,34,0.00,,,0.00,VWS V14.00,2013-06-30 06:59:00,
2013-06-30 10:03:00,80.6,50.5,29.74,NW,315,7.6,7.6,35,0.00,,,0.00,VWS V14.00,2013-06-30 07:03:00,
2013-06-30 10:04:00,80.6,50.5,29.74,NW,315,7.6,7.6,35,0.00,,,0.00,VWS V14.00,2013-06-30 07:04:00,
2013-06-30 10:08:00,80.4,50.3,29.74,SW,225,8.5,8.5,35,0.00,,,0.00,VWS V14.00,2013-06-30 07:08:00,
2013-06-30 10:09:00,80.4,50.3,29.74,SW,225,8.5,8.5,35,0.00,,,0.00,VWS V14.00,2013-06-30 07:09:00,
2013-06-30 10:13:00,80.7,49.8,29.74,NW,315,0.6,11.1,34,0.00,,,0.00,VWS V14.00,2013-06-30 07:13:00,
2013-06-30 10:14:00,81.1,50.1,29.74,SW,225,4.0,11.1,34,0.00,,,0.00,VWS V14.00,2013-06-30 07:14:00,
2013-06-30 10:18:00,81.5,50.5,29.74,WSW,248,6.9,6.9,34,0.00,,,0.00,VWS V14.00,2013-06-30 07:18:00,
2013-06-30 10:19:00,81.5,50.5,29.74,WSW,248,6.9,6.9,34,0.00,,,0.00,VWS V14.00,2013-06-30 07:19:00,
2013-06-30 10:23:00,81.6,50.5,29.74,WNW,292,3.3,8.9,34,0.00,,,0.00,VWS V14.00,2013-06-30 07:23:00,
2013-06-30 10:24:00,81.6,50.5,29.74,WNW,292,3.3,8.9,34,0.00,,,0.00,VWS V14.00,2013-06-30 07:24:00,
2013-06-30 10:25:00,81.5,49.7,29.74,SW,225,7.8,8.9,33,0.00,,,0.00,VWS V14.00,2013-06-30 07:25:00,
2013-06-30 10:28:00,81.6,50.5,29.74,WNW,292,6.7,8.2,34,0.00,,,0.00,VWS V14.00,2013-06-30 07:28:00,
2013-06-30 10:29:00,81.6,50.5,29.74,WNW,292,6.7,8.2,34,0.00,,,0.00,VWS V14.00,2013-06-30 07:29:00,
2013-06-30 10:30:00,81.6,50.5,29.74,WNW,292,6.7,8.2,34,0.00,,,0.00,VWS V14.00,2013-06-30 07:30:00,
2013-06-30 10:33:00,81.6,50.5,29.74,West,270,2.6,4.6,34,0.00,,,0.00,VWS V14.00,2013-06-30 07:33:00,
2013-06-30 10:34:00,81.6,50.5,29.74,West,270,2.6,4.6,34,0.00,,,0.00,VWS V14.00,2013-06-30 07:34:00,
2013-06-30 10:35:00,81.6,49.7,29.74,SSW,202,4.0,4.6,33,0.00,,,0.00,VWS V14.00,2013-06-30 07:35:00,
2013-06-30 10:38:00,82.0,50.9,29.74,WNW,292,4.9,4.9,34,0.00,,,0.00,VWS V14.00,2013-06-30 07:38:00,
2013-06-30 10:39:00,82.0,50.1,29.74,South,180,5.1,5.1,33,0.00,,,0.00,VWS V14.00,2013-06-30 07:39:00,
2013-06-30 10:40:00,82.0,50.1,29.74,South,180,5.1,5.1,33,0.00,,,0.00,VWS V14.00,2013-06-30 07:40:00,
2013-06-30 10:44:00,82.2,50.3,29.74,NNE,22,0.8,5.1,33,0.00,,,0.00,VWS V14.00,2013-06-30 07:44:00,
2013-06-30 10:45:00,82.2,50.3,29.74,NNE,22,0.8,5.1,33,0.00,,,0.00,VWS V14.00,2013-06-30 07:45:00,
2013-06-30 10:49:00,82.2,50.3,29.74,SSW,202,4.2,4.2,33,0.00,,,0.00,VWS V14.00,2013-06-30 07:49:00,
2013-06-30 10:50:00,82.2,50.3,29.74,SSW,202,4.2,4.2,33,0.00,,,0.00,VWS V14.00,2013-06-30 07:50:00,
2013-06-30 10:54:00,82.2,50.3,29.74,SW,225,10.5,10.5,33,0.00,,,0.00,VWS V14.00,2013-06-30 07:54:00,
2013-06-30 10:55:00,82.4,50.4,29.74,SW,225,6.9,10.5,33,0.00,,,0.00,VWS V14.00,2013-06-30 07:55:00,
2013-06-30 10:59:00,82.7,49.9,29.75,West,270,0.8,6.9,32,0.00,,,0.00,VWS V14.00,2013-06-30 07:59:00,
2013-06-30 11:00:00,82.7,49.9,29.75,West,270,0.8,6.9,32,0.00,,,0.00,VWS V14.00,2013-06-30 08:00:00,
2013-06-30 11:04:00,82.5,48.8,29.75,WNW,292,3.1,6.0,31,0.00,,,0.00,VWS V14.00,2013-06-30 08:04:00,
2013-06-30 11:05:00,82.5,48.8,29.74,WNW,292,0.0,6.0,31,0.00,,,0.00,VWS V14.00,2013-06-30 08:05:00,
2013-06-30 11:09:00,81.8,49.1,29.75,NW,315,8.5,8.5,32,0.00,,,0.00,VWS V14.00,2013-06-30 08:09:00,
2013-06-30 11:10:00,81.8,49.1,29.75,NW,315,8.5,8.5,32,0.00,,,0.00,VWS V14.00,2013-06-30 08:10:00,
2013-06-30 11:14:00,81.6,49.7,29.75,West,270,0.0,8.5,33,0.00,,,0.00,VWS V14.00,2013-06-30 08:14:00,
2013-06-30 11:15:00,81.6,49.7,29.75,West,270,0.0,8.5,33,0.00,,,0.00,VWS V14.00,2013-06-30 08:15:00,
2013-06-30 11:16:00,81.6,49.7,29.75,SSW,202,3.5,3.5,33,0.00,,,0.00,VWS V14.00,2013-06-30 08:16:00,
2013-06-30 11:19:00,81.6,49.7,29.75,WSW,248,0.8,3.5,33,0.00,,,0.00,VWS V14.00,2013-06-30 08:19:00,
2013-06-30 11:20:00,81.6,49.7,29.75,WSW,248,0.8,3.5,33,0.00,,,0.00,VWS V14.00,2013-06-30 08:20:00,
2013-06-30 11:21:00,82.0,50.1,29.75,WSW,248,0.8,0.8,33,0.00,,,0.00,VWS V14.00,2013-06-30 08:21:00,
2013-06-30 11:25:00,82.4,50.4,29.75,WSW,248,2.2,3.1,33,0.00,,,0.00,VWS V14.00,2013-06-30 08:25:00,
2013-06-30 11:26:00,82.4,50.4,29.75,WSW,248,2.2,2.2,33,0.00,,,0.00,VWS V14.00,2013-06-30 08:26:00,
2013-06-30 11:30:00,82.5,48.8,29.75,South,180,1.3,4.0,31,0.00,,,0.00,VWS V14.00,2013-06-30 08:30:00,
2013-06-30 11:31:00,82.5,48.8,29.75,SSW,202,3.3,3.3,31,0.00,,,0.00,VWS V14.00,2013-06-30 08:31:00,
2013-06-30 11:35:00,82.5,49.7,29.75,SW,225,7.1,7.1,32,0.00,,,0.00,VWS V14.00,2013-06-30 08:35:00,
2013-06-30 11:36:00,82.5,49.7,29.75,SW,225,7.1,7.1,32,0.00,,,0.00,VWS V14.00,2013-06-30 08:36:00,
2013-06-30 11:40:00,82.7,49.0,29.75,West,270,5.1,7.1,31,0.00,,,0.00,VWS V14.00,2013-06-30 08:40:00,
2013-06-30 11:41:00,82.7,49.0,29.74,West,270,5.1,5.1,31,0.00,,,0.00,VWS V14.00,2013-06-30 08:41:00,
2013-06-30 11:45:00,82.5,50.5,29.75,SW,225,6.2,7.1,33,0.00,,,0.00,VWS V14.00,2013-06-30 08:45:00,
2013-06-30 11:46:00,82.5,50.5,29.75,NW,315,0.0,0.0,33,0.00,,,0.00,VWS V14.00,2013-06-30 08:46:00,
2013-06-30 11:50:00,82.5,49.7,29.75,North,0,3.5,3.5,32,0.00,,,0.00,VWS V14.00,2013-06-30 08:50:00,
2013-06-30 11:51:00,82.5,49.7,29.75,North,0,3.5,3.5,32,0.00,,,0.00,VWS V14.00,2013-06-30 08:51:00,
2013-06-30 11:55:00,82.4,50.4,29.75,SSW,202,0.8,4.4,33,0.00,,,0.00,VWS V14.00,2013-06-30 08:55:00,
2013-06-30 11:56:00,82.4,50.4,29.75,SSW,202,0.8,0.8,33,0.00,,,0.00,VWS V14.00,2013-06-30 08:56:00,
2013-06-30 12:00:00,82.4,50.4,29.75,SSW,202,3.3,5.1,33,0.00,,,0.00,VWS V14.00,2013-06-30 09:00:00,
2013-06-30 12:01:00,82.4,50.4,29.75,SSW,202,3.3,3.3,33,0.00,,,0.00,VWS V14.00,2013-06-30 09:01:00,
2013-06-30 12:05:00,82.5,50.5,29.75,WSW,248,0.6,0.6,33,0.00,,,0.00,VWS V14.00,2013-06-30 09:05:00,
2013-06-30 12:06:00,82.5,50.5,29.75,WSW,248,0.6,0.6,33,0.00,,,0.00,VWS V14.00,2013-06-30 09:06:00,
2013-06-30 12:07:00,82.5,50.5,29.75,WSW,248,0.6,0.6,33,0.00,,,0.00,VWS V14.00,2013-06-30 09:07:00,
2013-06-30 12:10:00,82.9,50.0,29.75,SSW,202,3.8,3.8,32,0.00,,,0.00,VWS V14.00,2013-06-30 09:10:00,
2013-06-30 12:11:00,82.9,50.0,29.75,SSW,202,3.8,3.8,32,0.00,,,0.00,VWS V14.00,2013-06-30 09:11:00,
2013-06-30 12:12:00,83.1,50.2,29.75,SSE,158,1.5,3.8,32,0.00,,,0.00,VWS V14.00,2013-06-30 09:12:00,
2013-06-30 12:16:00,83.1,49.4,29.75,SW,225,8.5,8.5,31,0.00,,,0.00,VWS V14.00,2013-06-30 09:16:00,
2013-06-30 12:17:00,83.1,49.4,29.75,SW,225,8.5,8.5,31,0.00,,,0.00,VWS V14.00,2013-06-30 09:17:00,
2013-06-30 12:21:00,82.9,50.9,29.75,NW,315,2.4,2.4,33,0.00,,,0.00,VWS V14.00,2013-06-30 09:21:00,
2013-06-30 12:22:00,82.9,50.9,29.75,NW,315,2.4,2.4,33,0.00,,,0.00,VWS V14.00,2013-06-30 09:22:00,
2013-06-30 12:26:00,82.2,51.8,29.75,West,270,2.9,2.9,35,0.00,,,0.00,VWS V14.00,2013-06-30 09:26:00,
2013-06-30 12:27:00,82.2,52.6,29.74,WSW,248,4.9,4.9,36,0.00,,,0.00,VWS V14.00,2013-06-30 09:27:00,
2013-06-30 12:31:00,82.2,51.8,29.75,WNW,292,3.1,3.1,35,0.00,,,0.00,VWS V14.00,2013-06-30 09:31:00,
2013-06-30 12:32:00,82.7,52.3,29.75,SSW,202,2.4,3.1,35,0.00,,,0.00,VWS V14.00,2013-06-30 09:32:00,
2013-06-30 12:36:00,83.1,52.6,29.74,SW,225,6.2,6.2,35,0.00,,,0.00,VWS V14.00,2013-06-30 09:36:00,
2013-06-30 12:37:00,83.3,52.0,29.74,NNW,338,6.0,6.2,34,0.00,,,0.00,VWS V14.00,2013-06-30 09:37:00,
2013-06-30 12:41:00,83.1,51.9,29.74,SE,135,2.4,2.4,34,0.00,,,0.00,VWS V14.00,2013-06-30 09:41:00,
2013-06-30 12:42:00,83.3,52.0,29.74,WSW,248,1.3,2.4,34,0.00,,,0.00,VWS V14.00,2013-06-30 09:42:00,
2013-06-30 12:46:00,83.4,52.1,29.74,SW,225,7.3,7.3,34,0.00,,,0.00,VWS V14.00,2013-06-30 09:46:00,
2013-06-30 12:47:00,83.4,52.1,29.75,SW,225,7.3,7.3,34,0.00,,,0.00,VWS V14.00,2013-06-30 09:47:00,
2013-06-30 12:51:00,84.0,51.8,29.75,East,90,3.8,3.8,33,0.00,,,0.00,VWS V14.00,2013-06-30 09:51:00,
2013-06-30 12:52:00,84.0,51.8,29.74,South,180,0.8,3.8,33,0.00,,,0.00,VWS V14.00,2013-06-30 09:52:00,
2013-06-30 12:56:00,83.4,51.3,29.75,SSE,158,1.1,1.1,33,0.00,,,0.00,VWS V14.00,2013-06-30 09:56:00,
2013-06-30 12:57:00,83.6,51.5,29.74,SW,225,6.0,6.0,33,0.00,,,0.00,VWS V14.00,2013-06-30 09:57:00,
2013-06-30 13:01:00,84.0,51.8,29.75,SW,225,2.2,2.2,33,0.00,,,0.00,VWS V14.00,2013-06-30 10:01:00,
2013-06-30 13:02:00,84.0,51.8,29.74,SW,225,2.2,2.2,33,0.00,,,0.00,VWS V14.00,2013-06-30 10:02:00,
2013-06-30 13:06:00,84.3,52.1,29.74,WSW,248,8.0,8.0,33,0.00,,,0.00,VWS V14.00,2013-06-30 10:06:00,
2013-06-30 13:07:00,84.5,52.3,29.74,WSW,248,8.0,8.0,33,0.00,,,0.00,VWS V14.00,2013-06-30 10:07:00,
2013-06-30 13:11:00,84.7,51.6,29.74,SW,225,5.1,5.1,32,0.00,,,0.00,VWS V14.00,2013-06-30 10:11:00,
2013-06-30 13:12:00,84.7,51.6,29.74,SW,225,11.8,11.8,32,0.00,,,0.00,VWS V14.00,2013-06-30 10:12:00,
2013-06-30 13:13:00,84.7,51.6,29.74,SW,225,11.8,11.8,32,0.00,,,0.00,VWS V14.00,2013-06-30 10:13:00,
2013-06-30 13:16:00,84.7,51.6,29.74,SSW,202,3.1,3.1,32,0.00,,,0.00,VWS V14.00,2013-06-30 10:16:00,
2013-06-30 13:17:00,84.7,51.6,29.74,SSW,202,3.1,3.1,32,0.00,,,0.00,VWS V14.00,2013-06-30 10:17:00,
2013-06-30 13:18:00,84.9,51.8,29.74,SSE,158,3.5,3.5,32,0.00,,,0.00,VWS V14.00,2013-06-30 10:18:00,
2013-06-30 13:21:00,85.1,52.8,29.74,SSW,202,6.2,6.2,33,0.00,,,0.00,VWS V14.00,2013-06-30 10:21:00,
2013-06-30 13:22:00,85.1,52.8,29.74,SSW,202,6.2,6.2,33,0.00,,,0.00,VWS V14.00,2013-06-30 10:22:00,
2013-06-30 13:23:00,85.1,52.8,29.74,WSW,248,8.9,8.9,33,0.00,,,0.00,VWS V14.00,2013-06-30 10:23:00,
2013-06-30 13:26:00,85.6,52.4,29.74,SW,225,2.4,4.6,32,0.00,,,0.00,VWS V14.00,2013-06-30 10:26:00,
2013-06-30 13:27:00,85.6,52.4,29.74,SW,225,2.4,4.6,32,0.00,,,0.00,VWS V14.00,2013-06-30 10:27:00,
2013-06-30 13:28:00,85.6,52.4,29.74,SW,225,2.4,4.6,32,0.00,,,0.00,VWS V14.00,2013-06-30 10:28:00,
2013-06-30 13:31:00,85.6,52.4,29.74,WSW,248,3.8,3.8,32,0.00,,,0.00,VWS V14.00,2013-06-30 10:31:00,
2013-06-30 13:32:00,85.6,52.4,29.74,WSW,248,3.8,3.8,32,0.00,,,0.00,VWS V14.00,2013-06-30 10:32:00,
2013-06-30 13:33:00,85.4,52.2,29.74,East,90,3.3,3.8,32,0.00,,,0.00,VWS V14.00,2013-06-30 10:33:00,
2013-06-30 13:37:00,85.6,52.4,29.74,SSW,202,9.3,9.3,32,0.00,,,0.00,VWS V14.00,2013-06-30 10:37:00,
2013-06-30 13:38:00,85.6,52.4,29.74,SSW,202,9.3,9.3,32,0.00,,,0.00,VWS V14.00,2013-06-30 10:38:00,
2013-06-30 13:42:00,85.6,53.2,29.74,SSE,158,3.8,3.8,33,0.00,,,0.00,VWS V14.00,2013-06-30 10:42:00,
2013-06-30 13:43:00,85.6,53.2,29.74,SSE,158,3.8,3.8,33,0.00,,,0.00,VWS V14.00,2013-06-30 10:43:00,
2013-06-30 13:47:00,85.8,52.6,29.74,SW,225,12.9,12.9,32,0.00,,,0.00,VWS V14.00,2013-06-30 10:47:00,
2013-06-30 13:48:00,85.8,52.6,29.74,SSW,202,6.2,12.9,32,0.00,,,0.00,VWS V14.00,2013-06-30 10:48:00,
2013-06-30 13:52:00,85.8,52.6,29.74,SSW,202,6.9,6.9,32,0.00,,,0.00,VWS V14.00,2013-06-30 10:52:00,
2013-06-30 13:53:00,85.8,52.6,29.74,SSW,202,6.9,6.9,32,0.00,,,0.00,VWS V14.00,2013-06-30 10:53:00,
2013-06-30 13:57:00,85.2,52.0,29.74,SW,225,5.8,9.8,32,0.00,,,0.00,VWS V14.00,2013-06-30 10:57:00,
2013-06-30 13:58:00,85.2,52.0,29.74,SW,225,5.8,9.8,32,0.00,,,0.00,VWS V14.00,2013-06-30 10:58:00,
2013-06-30 14:02:00,85.1,50.2,29.74,WSW,248,6.2,6.2,30,0.00,,,0.00,VWS V14.00,2013-06-30 11:02:00,
2013-06-30 14:03:00,85.1,50.2,29.74,NW,315,0.0,6.2,30,0.00,,,0.00,VWS V14.00,2013-06-30 11:03:00,
2013-06-30 14:07:00,85.1,52.0,29.74,SW,225,12.5,12.5,32,0.00,,,0.00,VWS V14.00,2013-06-30 11:07:00,
2013-06-30 14:08:00,85.1,52.0,29.74,SW,225,12.5,12.5,32,0.00,,,0.00,VWS V14.00,2013-06-30 11:08:00,
2013-06-30 14:12:00,85.6,52.4,29.73,WSW,248,4.2,5.1,32,0.00,,,0.00,VWS V14.00,2013-06-30 11:12:00,
2013-06-30 14:13:00,85.6,52.4,29.73,WSW,248,4.2,5.1,32,0.00,,,0.00,VWS V14.00,2013-06-30 11:13:00,
2013-06-30 14:17:00,86.0,51.9,29.74,WSW,248,6.7,8.2,31,0.00,,,0.00,VWS V14.00,2013-06-30 11:17:00,
2013-06-30 14:18:00,86.0,51.9,29.74,WSW,248,6.7,8.2,31,0.00,,,0.00,VWS V14.00,2013-06-30 11:18:00,
2013-06-30 14:19:00,86.0,51.9,29.73,WSW,248,6.7,8.2,31,0.00,,,0.00,VWS V14.00,2013-06-30 11:19:00,
2013-06-30 14:22:00,86.0,51.9,29.74,SW,225,6.4,6.4,31,0.00,,,0.00,VWS V14.00,2013-06-30 11:22:00,
2013-06-30 14:23:00,86.0,51.9,29.74,SW,225,6.4,6.4,31,0.00,,,0.00,VWS V14.00,2013-06-30 11:23:00,
2013-06-30 14:24:00,86.0,51.9,29.74,SW,225,6.4,6.4,31,0.00,,,0.00,VWS V14.00,2013-06-30 11:24:00,
2013-06-30 14:28:00,85.8,50.8,29.74,ENE,68,0.0,2.9,30,0.00,,,0.00,VWS V14.00,2013-06-30 11:28:00,
2013-06-30 14:29:00,85.6,50.7,29.74,ESE,112,0.6,2.9,30,0.00,,,0.00,VWS V14.00,2013-06-30 11:29:00,
2013-06-30 14:33:00,84.5,52.3,29.73,WNW,292,3.8,3.8,33,0.00,,,0.00,VWS V14.00,2013-06-30 11:33:00,
2013-06-30 14:34:00,84.5,52.3,29.73,WNW,292,3.8,3.8,33,0.00,,,0.00,VWS V14.00,2013-06-30 11:34:00,
2013-06-30 14:38:00,83.8,51.7,29.73,West,270,4.0,4.0,33,0.00,,,0.00,VWS V14.00,2013-06-30 11:38:00,
2013-06-30 14:39:00,83.8,51.7,29.74,West,270,4.0,4.0,33,0.00,,,0.00,VWS V14.00,2013-06-30 11:39:00,
2013-06-30 14:43:00,84.0,51.8,29.73,SE,135,3.5,3.5,33,0.00,,,0.00,VWS V14.00,2013-06-30 11:43:00,
2013-06-30 14:44:00,83.8,51.7,29.73,ESE,112,2.4,3.5,33,0.00,,,0.00,VWS V14.00,2013-06-30 11:44:00,
2013-06-30 14:48:00,83.4,51.3,29.73,WNW,292,3.3,4.2,33,0.00,,,0.00,VWS V14.00,2013-06-30 11:48:00,
2013-06-30 14:49:00,83.4,51.3,29.74,WNW,292,3.3,4.2,33,0.00,,,0.00,VWS V14.00,2013-06-30 11:49:00,
2013-06-30 14:53:00,83.1,51.9,29.73,SSW,202,5.8,5.8,34,0.00,,,0.00,VWS V14.00,2013-06-30 11:53:00,
2013-06-30 14:54:00,83.3,51.2,29.74,SSW,202,6.2,6.2,33,0.00,,,0.00,VWS V14.00,2013-06-30 11:54:00,
2013-06-30 14:58:00,83.4,51.3,29.74,SE,135,9.1,9.1,33,0.00,,,0.00,VWS V14.00,2013-06-30 11:58:00,
2013-06-30 14:59:00,83.4,51.3,29.74,SE,135,9.1,9.1,33,0.00,,,0.00,VWS V14.00,2013-06-30 11:59:00,
2013-06-30 15:03:00,83.1,51.0,29.74,SW,225,5.1,5.1,33,0.00,,,0.00,VWS V14.00,2013-06-30 12:03:00,
2013-06-30 15:04:00,83.1,51.0,29.74,SW,225,5.1,5.1,33,0.00,,,0.00,VWS V14.00,2013-06-30 12:04:00,
2013-06-30 15:08:00,83.4,51.3,29.74,NW,315,2.9,2.9,33,0.00,,,0.00,VWS V14.00,2013-06-30 12:08:00,
2013-06-30 15:09:00,83.4,51.3,29.74,NW,315,2.9,2.9,33,0.00,,,0.00,VWS V14.00,2013-06-30 12:09:00,
2013-06-30 15:14:00,83.8,51.7,29.74,SSW,202,7.3,7.3,33,0.00,,,0.00,VWS V14.00,2013-06-30 12:14:00,
2013-06-30 15:19:00,84.5,51.4,29.74,SSE,158,2.4,4.2,32,0.00,,,0.00,VWS V14.00,2013-06-30 12:19:00,
2013-06-30 15:24:00,84.5,51.4,29.74,West,270,2.2,5.1,32,0.00,,,0.00,VWS V14.00,2013-06-30 12:24:00,
2013-06-30 15:29:00,83.8,50.8,29.74,WSW,248,2.2,5.1,32,0.00,,,0.00,VWS V14.00,2013-06-30 12:29:00,
2013-06-30 15:30:00,83.8,50.8,29.74,WSW,248,2.2,5.1,32,0.00,,,0.00,VWS V14.00,2013-06-30 12:30:00,
2013-06-30 15:34:00,83.6,51.5,29.74,ESE,112,0.0,1.1,33,0.00,,,0.00,VWS V14.00,2013-06-30 12:34:00,
2013-06-30 15:35:00,83.4,50.5,29.74,ESE,112,3.5,3.5,32,0.00,,,0.00,VWS V14.00,2013-06-30 12:35:00,
2013-06-30 15:39:00,83.4,49.6,29.74,East,90,3.5,3.5,31,0.00,,,0.00,VWS V14.00,2013-06-30 12:39:00,
2013-06-30 15:40:00,83.4,49.6,29.74,East,90,3.5,3.5,31,0.00,,,0.00,VWS V14.00,2013-06-30 12:40:00,
2013-06-30 15:44:00,83.4,49.6,29.74,SW,225,7.3,11.6,31,0.00,,,0.00,VWS V14.00,2013-06-30 12:44:00,
2013-06-30 15:45:00,83.4,49.6,29.74,SW,225,7.3,11.6,31,0.00,,,0.00,VWS V14.00,2013-06-30 12:45:00,
2013-06-30 15:49:00,83.4,49.6,29.74,ENE,68,4.4,4.6,31,0.00,,,0.00,VWS V14.00,2013-06-30 12:49:00,
2013-06-30 15:50:00,83.4,49.6,29.74,ESE,112,4.6,4.6,31,0.00,,,0.00,VWS V14.00,2013-06-30 12:50:00,
2013-06-30 15:54:00,83.4,52.1,29.74,ESE,112,9.6,9.6,34,0.00,,,0.00,VWS V14.00,2013-06-30 12:54:00,
2013-06-30 15:55:00,83.4,52.1,29.74,ESE,112,9.6,9.6,34,0.00,,,0.00,VWS V14.00,2013-06-30 12:55:00,
2013-06-30 15:56:00,83.4,52.1,29.74,ESE,112,9.6,9.6,34,0.00,,,0.00,VWS V14.00,2013-06-30 12:56:00,
2013-06-30 15:59:00,83.3,53.6,29.74,East,90,6.4,9.6,36,0.00,,,0.00,VWS V14.00,2013-06-30 12:59:00,
2013-06-30 16:00:00,83.3,53.6,29.74,East,90,6.4,9.6,36,0.00,,,0.00,VWS V14.00,2013-06-30 13:00:00,
2013-06-30 16:01:00,83.1,53.4,29.74,NE,45,3.5,3.5,36,0.00,,,0.00,VWS V14.00,2013-06-30 13:01:00,
2013-06-30 16:04:00,83.1,53.4,29.74,East,90,8.5,12.9,36,0.00,,,0.00,VWS V14.00,2013-06-30 13:04:00,
2013-06-30 16:05:00,83.1,53.4,29.74,East,90,8.5,12.9,36,0.00,,,0.00,VWS V14.00,2013-06-30 13:05:00,
2013-06-30 16:06:00,83.1,53.4,29.74,East,90,8.5,8.5,36,0.00,,,0.00,VWS V14.00,2013-06-30 13:06:00,
2013-06-30 16:10:00,82.7,53.1,29.74,ENE,68,8.0,8.5,36,0.00,,,0.00,VWS V14.00,2013-06-30 13:10:00,
2013-06-30 16:11:00,82.7,53.1,29.75,ENE,68,8.0,8.0,36,0.00,,,0.00,VWS V14.00,2013-06-30 13:11:00,
2013-06-30 16:15:00,82.5,52.9,29.74,ENE,68,3.3,8.0,36,0.00,,,0.00,VWS V14.00,2013-06-30 13:15:00,
2013-06-30 16:16:00,82.5,52.9,29.75,North,0,2.9,2.9,36,0.00,,,0.00,VWS V14.00,2013-06-30 13:16:00,
2013-06-30 16:20:00,82.2,51.8,29.74,East,90,5.3,5.3,35,0.00,,,0.00,VWS V14.00,2013-06-30 13:20:00,
2013-06-30 16:21:00,82.2,51.8,29.74,East,90,5.3,5.3,35,0.00,,,0.00,VWS V14.00,2013-06-30 13:21:00,
2013-06-30 16:25:00,82.2,51.8,29.74,ENE,68,2.9,6.2,35,0.00,,,0.00,VWS V14.00,2013-06-30 13:25:00,
2013-06-30 16:26:00,82.2,51.8,29.74,ENE,68,2.9,2.9,35,0.00,,,0.00,VWS V14.00,2013-06-30 13:26:00,
2013-06-30 16:30:00,82.2,53.4,29.75,East,90,8.2,8.7,37,0.00,,,0.00,VWS V14.00,2013-06-30 13:30:00,
2013-06-30 16:31:00,82.0,53.2,29.75,ESE,112,5.1,5.1,37,0.00,,,0.00,VWS V14.00,2013-06-30 13:31:00,
2013-06-30 16:35:00,82.0,53.2,29.75,ESE,112,3.3,5.1,37,0.00,,,0.00,VWS V14.00,2013-06-30 13:35:00,
2013-06-30 16:36:00,82.0,53.2,29.75,ESE,112,3.3,3.3,37,0.00,,,0.00,VWS V14.00,2013-06-30 13:36:00,
2013-06-30 16:40:00,82.0,53.2,29.75,ENE,68,5.3,5.3,37,0.00,,,0.00,VWS V14.00,2013-06-30 13:40:00,
2013-06-30 16:41:00,82.0,53.2,29.75,ENE,68,5.3,5.3,37,0.00,,,0.00,VWS V14.00,2013-06-30 13:41:00,
2013-06-30 16:45:00,81.6,53.6,29.75,NE,45,3.5,3.5,38,0.00,,,0.00,VWS V14.00,2013-06-30 13:45:00,
2013-06-30 16:46:00,81.6,53.6,29.75,NE,45,3.5,3.5,38,0.00,,,0.00,VWS V14.00,2013-06-30 13:46:00,
2013-06-30 16:50:00,81.8,53.0,29.75,ESE,112,5.5,5.5,37,0.00,,,0.00,VWS V14.00,2013-06-30 13:50:00,
2013-06-30 16:51:00,81.8,53.0,29.75,ESE,112,5.5,5.5,37,0.00,,,0.00,VWS V14.00,2013-06-30 13:51:00,
2013-06-30 16:55:00,82.0,53.2,29.74,East,90,3.1,3.1,37,0.00,,,0.00,VWS V14.00,2013-06-30 13:55:00,
2013-06-30 16:56:00,82.0,53.2,29.74,East,90,3.1,3.1,37,0.00,,,0.00,VWS V14.00,2013-06-30 13:56:00,
2013-06-30 17:00:00,82.0,53.9,29.74,ENE,68,0.8,0.8,38,0.00,,,0.00,VWS V14.00,2013-06-30 14:00:00,
2013-06-30 17:01:00,82.0,53.9,29.74,ENE,68,0.8,0.8,38,0.00,,,0.00,VWS V14.00,2013-06-30 14:01:00,
2013-06-30 17:02:00,82.0,53.9,29.74,ENE,68,0.8,0.8,38,0.00,,,0.00,VWS V14.00,2013-06-30 14:02:00,
2013-06-30 17:05:00,82.0,53.9,29.74,East,90,5.5,5.5,38,0.00,,,0.00,VWS V14.00,2013-06-30 14:05:00,
2013-06-30 17:06:00,82.0,53.9,29.74,East,90,5.5,5.5,38,0.00,,,0.00,VWS V14.00,2013-06-30 14:06:00,
2013-06-30 17:07:00,82.2,54.1,29.74,ENE,68,2.4,5.5,38,0.00,,,0.00,VWS V14.00,2013-06-30 14:07:00,
2013-06-30 17:10:00,82.2,54.8,29.74,East,90,8.2,8.2,39,0.00,,,0.00,VWS V14.00,2013-06-30 14:10:00,
2013-06-30 17:11:00,82.2,54.8,29.74,East,90,8.2,8.2,39,0.00,,,0.00,VWS V14.00,2013-06-30 14:11:00,
2013-06-30 17:12:00,82.2,54.8,29.74,ENE,68,1.7,8.2,39,0.00,,,0.00,VWS V14.00,2013-06-30 14:12:00,
2013-06-30 17:16:00,82.0,55.3,29.75,ENE,68,6.0,6.0,40,0.00,,,0.00,VWS V14.00,2013-06-30 14:16:00,
2013-06-30 17:17:00,82.0,55.3,29.74,ENE,68,6.0,6.0,40,0.00,,,0.00,VWS V14.00,2013-06-30 14:17:00,
2013-06-30 17:21:00,81.6,55.6,29.75,East,90,9.1,9.1,41,0.00,,,0.00,VWS V14.00,2013-06-30 14:21:00,
2013-06-30 17:22:00,81.5,56.2,29.75,SE,135,6.7,9.1,42,0.00,,,0.00,VWS V14.00,2013-06-30 14:22:00,
2013-06-30 17:26:00,81.3,56.0,29.75,SE,135,4.0,4.0,42,0.00,,,0.00,VWS V14.00,2013-06-30 14:26:00,
2013-06-30 17:27:00,81.3,56.0,29.74,SE,135,4.0,4.0,42,0.00,,,0.00,VWS V14.00,2013-06-30 14:27:00,
2013-06-30 17:31:00,81.1,56.5,29.75,ENE,68,5.1,5.1,43,0.00,,,0.00,VWS V14.00,2013-06-30 14:31:00,
2013-06-30 17:32:00,81.1,56.5,29.75,ENE,68,5.1,5.1,43,0.00,,,0.00,VWS V14.00,2013-06-30 14:32:00,
2013-06-30 17:36:00,80.7,56.2,29.75,East,90,4.9,4.9,43,0.00,,,0.00,VWS V14.00,2013-06-30 14:36:00,
2013-06-30 17:37:00,80.6,57.3,29.75,ENE,68,5.1,5.1,45,0.00,,,0.00,VWS V14.00,2013-06-30 14:37:00,
2013-06-30 17:41:00,80.4,57.1,29.75,ENE,68,7.3,7.3,45,0.00,,,0.00,VWS V14.00,2013-06-30 14:41:00,
2013-06-30 17:42:00,80.4,57.1,29.75,ENE,68,7.3,7.3,45,0.00,,,0.00,VWS V14.00,2013-06-30 14:42:00,
2013-06-30 17:46:00,80.2,57.0,29.75,ENE,68,8.2,8.2,45,0.00,,,0.00,VWS V14.00,2013-06-30 14:46:00,
2013-06-30 17:47:00,80.0,57.4,29.75,ESE,112,5.3,8.2,46,0.00,,,0.00,VWS V14.00,2013-06-30 14:47:00,
2013-06-30 17:51:00,80.0,56.8,29.75,ENE,68,8.2,8.9,45,0.00,,,0.00,VWS V14.00,2013-06-30 14:51:00,
2013-06-30 17:52:00,80.0,56.8,29.75,ENE,68,8.2,8.9,45,0.00,,,0.00,VWS V14.00,2013-06-30 14:52:00,
2013-06-30 17:56:00,80.0,56.8,29.75,East,90,6.2,6.2,45,0.00,,,0.00,VWS V14.00,2013-06-30 14:56:00,
2013-06-30 17:57:00,80.0,56.8,29.75,East,90,6.2,6.2,45,0.00,,,0.00,VWS V14.00,2013-06-30 14:57:00,
2013-06-30 18:02:00,79.8,56.0,29.75,ENE,68,9.6,9.6,44,0.00,,,0.00,VWS V14.00,2013-06-30 15:02:00,
2013-06-30 18:03:00,79.8,56.0,29.75,East,90,5.5,9.6,44,0.00,,,0.00,VWS V14.00,2013-06-30 15:03:00,
2013-06-30 18:07:00,80.0,56.8,29.75,ESE,112,6.2,9.1,45,0.00,,,0.00,VWS V14.00,2013-06-30 15:07:00,
2013-06-30 18:08:00,80.0,56.8,29.75,ESE,112,6.2,9.1,45,0.00,,,0.00,VWS V14.00,2013-06-30 15:08:00,
2013-06-30 18:12:00,80.2,57.0,29.75,SE,135,11.8,11.8,45,0.00,,,0.00,VWS V14.00,2013-06-30 15:12:00,
2013-06-30 18:13:00,80.2,57.0,29.75,SE,135,11.8,11.8,45,0.00,,,0.00,VWS V14.00,2013-06-30 15:13:00,
2013-06-30 18:17:00,80.2,57.0,29.75,ENE,68,10.2,10.2,45,0.00,,,0.00,VWS V14.00,2013-06-30 15:17:00,
2013-06-30 18:18:00,80.2,56.3,29.75,East,90,5.1,10.2,44,0.00,,,0.00,VWS V14.00,2013-06-30 15:18:00,
2013-06-30 18:22:00,80.2,57.0,29.76,ENE,68,9.1,13.4,45,0.00,,,0.00,VWS V14.00,2013-06-30 15:22:00,
2013-06-30 18:23:00,80.2,57.0,29.75,ENE,68,9.1,13.4,45,0.00,,,0.00,VWS V14.00,2013-06-30 15:23:00,
2013-06-30 18:27:00,80.0,56.2,29.75,East,90,5.3,5.3,44,0.00,,,0.00,VWS V14.00,2013-06-30 15:27:00,
2013-06-30 18:28:00,80.0,56.2,29.75,East,90,5.3,5.3,44,0.00,,,0.00,VWS V14.00,2013-06-30 15:28:00,
2013-06-30 18:32:00,80.0,56.2,29.75,NE,45,9.8,9.8,44,0.00,,,0.00,VWS V14.00,2013-06-30 15:32:00,
2013-06-30 18:33:00,79.8,55.3,29.75,ENE,68,11.8,11.8,43,0.00,,,0.00,VWS V14.00,2013-06-30 15:33:00,
2013-06-30 18:37:00,79.8,56.0,29.76,SE,135,5.8,5.8,44,0.00,,,0.00,VWS V14.00,2013-06-30 15:37:00,
2013-06-30 18:38:00,79.8,56.0,29.76,SE,135,5.8,5.8,44,0.00,,,0.00,VWS V14.00,2013-06-30 15:38:00,
2013-06-30 18:42:00,79.8,56.0,29.76,SE,135,1.7,1.7,44,0.00,,,0.00,VWS V14.00,2013-06-30 15:42:00,
2013-06-30 18:43:00,79.8,56.0,29.76,SE,135,10.7,10.7,44,0.00,,,0.00,VWS V14.00,2013-06-30 15:43:00,
2013-06-30 18:47:00,79.7,55.9,29.76,East,90,3.1,3.1,44,0.00,,,0.00,VWS V14.00,2013-06-30 15:47:00,
2013-06-30 18:48:00,79.7,55.9,29.76,East,90,4.2,4.2,44,0.00,,,0.00,VWS V14.00,2013-06-30 15:48:00,
2013-06-30 18:52:00,79.7,55.2,29.76,SE,135,7.6,8.5,43,0.00,,,0.00,VWS V14.00,2013-06-30 15:52:00,
2013-06-30 18:53:00,79.7,55.2,29.76,SE,135,7.6,8.5,43,0.00,,,0.00,VWS V14.00,2013-06-30 15:53:00,
2013-06-30 18:57:00,79.7,55.9,29.76,East,90,4.4,4.4,44,0.00,,,0.00,VWS V14.00,2013-06-30 15:57:00,
2013-06-30 18:58:00,79.7,55.9,29.76,East,90,4.4,4.4,44,0.00,,,0.00,VWS V14.00,2013-06-30 15:58:00,
2013-06-30 19:02:00,79.5,55.7,29.76,East,90,4.4,6.2,44,0.00,,,0.00,VWS V14.00,2013-06-30 16:02:00,
2013-06-30 19:03:00,79.5,55.7,29.76,East,90,4.4,6.2,44,0.00,,,0.00,VWS V14.00,2013-06-30 16:03:00,
2013-06-30 19:07:00,79.5,55.7,29.76,East,90,10.5,10.5,44,0.00,,,0.00,VWS V14.00,2013-06-30 16:07:00,
2013-06-30 19:08:00,79.5,55.7,29.76,East,90,10.5,10.5,44,0.00,,,0.00,VWS V14.00,2013-06-30 16:08:00,
2013-06-30 19:09:00,79.3,55.5,29.76,East,90,6.4,10.5,44,0.00,,,0.00,VWS V14.00,2013-06-30 16:09:00,
2013-06-30 19:13:00,79.3,55.5,29.77,East,90,6.4,6.4,44,0.00,,,0.00,VWS V14.00,2013-06-30 16:13:00,
2013-06-30 19:14:00,79.3,55.5,29.76,East,90,6.4,6.4,44,0.00,,,0.00,VWS V14.00,2013-06-30 16:14:00,
2013-06-30 19:18:00,79.3,55.5,29.77,East,90,6.4,7.8,44,0.00,,,0.00,VWS V14.00,2013-06-30 16:18:00,
2013-06-30 19:19:00,79.3,55.5,29.76,East,90,6.4,7.8,44,0.00,,,0.00,VWS V14.00,2013-06-30 16:19:00,
2013-06-30 19:23:00,79.1,55.3,29.77,East,90,3.1,3.8,44,0.00,,,0.00,VWS V14.00,2013-06-30 16:23:00,
2013-06-30 19:24:00,79.1,55.3,29.77,NNE,22,6.2,6.2,44,0.00,,,0.00,VWS V14.00,2013-06-30 16:24:00,
2013-06-30 19:28:00,79.1,56.0,29.77,ENE,68,3.3,6.4,45,0.00,,,0.00,VWS V14.00,2013-06-30 16:28:00,
2013-06-30 19:29:00,79.1,56.0,29.77,ENE,68,3.3,6.4,45,0.00,,,0.00,VWS V14.00,2013-06-30 16:29:00,
2013-06-30 19:30:00,79.1,56.0,29.77,ENE,68,3.3,6.4,45,0.00,,,0.00,VWS V14.00,2013-06-30 16:30:00,
2013-06-30 19:33:00,78.9,55.8,29.77,ESE,112,9.1,9.1,45,0.00,,,0.00,VWS V14.00,2013-06-30 16:33:00,
2013-06-30 19:34:00,78.9,55.8,29.77,ESE,112,9.1,9.1,45,0.00,,,0.00,VWS V14.00,2013-06-30 16:34:00,
2013-06-30 19:35:00,78.9,55.8,29.77,ENE,68,4.0,9.1,45,0.00,,,0.00,VWS V14.00,2013-06-30 16:35:00,
2013-06-30 19:38:00,78.9,55.8,29.77,East,90,5.1,5.1,45,0.00,,,0.00,VWS V14.00,2013-06-30 16:38:00,
2013-06-30 19:39:00,78.9,55.8,29.77,ESE,112,2.4,5.1,45,0.00,,,0.00,VWS V14.00,2013-06-30 16:39:00,
2013-06-30 19:40:00,78.9,55.8,29.78,ESE,112,4.0,4.0,45,0.00,,,0.00,VWS V14.00,2013-06-30 16:40:00,
2013-06-30 19:43:00,78.8,55.7,29.78,East,90,5.3,5.3,45,0.00,,,0.00,VWS V14.00,2013-06-30 16:43:00,
2013-06-30 19:44:00,78.8,55.7,29.78,East,90,5.3,5.3,45,0.00,,,0.00,VWS V14.00,2013-06-30 16:44:00,
2013-06-30 19:45:00,78.6,55.5,29.78,ENE,68,4.4,4.4,45,0.00,,,0.00,VWS V14.00,2013-06-30 16:45:00,
2013-06-30 19:49:00,78.6,55.5,29.78,ESE,112,3.8,4.4,45,0.00,,,0.00,VWS V14.00,2013-06-30 16:49:00,
2013-06-30 19:51:00,78.6,56.1,29.78,East,90,4.6,4.6,46,0.00,,,0.00,VWS V14.00,2013-06-30 16:51:00,
2013-06-30 19:54:00,78.6,56.7,29.78,ENE,68,6.2,6.9,47,0.00,,,0.00,VWS V14.00,2013-06-30 16:54:00,
2013-06-30 19:55:00,78.6,56.7,29.78,ENE,68,6.2,6.9,47,0.00,,,0.00,VWS V14.00,2013-06-30 16:55:00,
2013-06-30 19:56:00,78.6,56.7,29.78,ENE,68,4.2,4.2,47,0.00,,,0.00,VWS V14.00,2013-06-30 16:56:00,
2013-06-30 19:59:00,78.6,56.7,29.78,East,90,7.1,7.1,47,0.00,,,0.00,VWS V14.00,2013-06-30 16:59:00,
2013-06-30 20:00:00,78.6,56.7,29.78,ENE,68,4.6,7.1,47,0.00,,,0.00,VWS V14.00,2013-06-30 17:00:00,
2013-06-30 20:01:00,78.6,56.7,29.78,ENE,68,4.6,4.6,47,0.00,,,0.00,VWS V14.00,2013-06-30 17:01:00,
2013-06-30 20:04:00,78.4,57.1,29.78,East,90,2.2,4.6,48,0.00,,,0.00,VWS V14.00,2013-06-30 17:04:00,
2013-06-30 20:05:00,78.4,57.1,29.78,East,90,2.4,4.6,48,0.00,,,0.00,VWS V14.00,2013-06-30 17:05:00,
2013-06-30 20:06:00,78.4,57.1,29.78,East,90,2.4,2.4,48,0.00,,,0.00,VWS V14.00,2013-06-30 17:06:00,
2013-06-30 20:09:00,78.4,57.1,29.78,East,90,5.8,5.8,48,0.00,,,0.00,VWS V14.00,2013-06-30 17:09:00,
2013-06-30 20:10:00,78.4,57.1,29.78,East,90,5.8,5.8,48,0.00,,,0.00,VWS V14.00,2013-06-30 17:10:00,
2013-06-30 20:11:00,78.4,56.5,29.78,SE,135,3.1,3.1,47,0.00,,,0.00,VWS V14.00,2013-06-30 17:11:00,
2013-06-30 20:14:00,78.4,56.5,29.78,ESE,112,8.0,8.0,47,0.00,,,0.00,VWS V14.00,2013-06-30 17:14:00,
2013-06-30 20:15:00,78.4,56.5,29.79,ESE,112,8.0,8.0,47,0.00,,,0.00,VWS V14.00,2013-06-30 17:15:00,
2013-06-30 20:16:00,78.4,55.9,29.78,ENE,68,2.4,2.4,46,0.00,,,0.00,VWS V14.00,2013-06-30 17:16:00,
2013-06-30 20:19:00,78.4,56.5,29.78,East,90,5.8,5.8,47,0.00,,,0.00,VWS V14.00,2013-06-30 17:19:00,
2013-06-30 20:20:00,78.2,56.3,29.78,ENE,68,2.9,2.9,47,0.00,,,0.00,VWS V14.00,2013-06-30 17:20:00,
2013-06-30 20:21:00,78.2,56.3,29.78,ENE,68,2.9,2.9,47,0.00,,,0.00,VWS V14.00,2013-06-30 17:21:00,
2013-06-30 20:24:00,78.4,57.1,29.78,ESE,112,3.1,4.4,48,0.00,,,0.00,VWS V14.00,2013-06-30 17:24:00,
2013-06-30 20:25:00,78.4,57.1,29.79,ENE,68,1.7,1.7,48,0.00,,,0.00,VWS V14.00,2013-06-30 17:25:00,
2013-06-30 20:26:00,78.4,57.1,29.79,ENE,68,1.7,1.7,48,0.00,,,0.00,VWS V14.00,2013-06-30 17:26:00,
2013-06-30 20:29:00,78.4,56.5,29.79,ENE,68,0.6,1.7,47,0.00,,,0.00,VWS V14.00,2013-06-30 17:29:00,
2013-06-30 20:31:00,78.4,57.1,29.79,ESE,112,5.3,5.3,48,0.00,,,0.00,VWS V14.00,2013-06-30 17:31:00,
2013-06-30 20:34:00,78.4,57.1,29.79,ENE,68,3.5,5.3,48,0.00,,,0.00,VWS V14.00,2013-06-30 17:34:00,
2013-06-30 20:36:00,78.4,57.1,29.79,ENE,68,3.5,3.5,48,0.00,,,0.00,VWS V14.00,2013-06-30 17:36:00,
2013-06-30 20:39:00,78.0,56.2,29.79,ENE,68,1.3,3.5,47,0.00,,,0.00,VWS V14.00,2013-06-30 17:39:00,
2013-06-30 20:40:00,78.0,56.2,29.79,ENE,68,1.3,3.5,47,0.00,,,0.00,VWS V14.00,2013-06-30 17:40:00,
2013-06-30 20:41:00,78.0,56.2,29.78,SE,135,3.3,3.3,47,0.00,,,0.00,VWS V14.00,2013-06-30 17:41:00,
2013-06-30 20:44:00,78.0,56.2,29.79,ENE,68,5.8,5.8,47,0.00,,,0.00,VWS V14.00,2013-06-30 17:44:00,
2013-06-30 20:45:00,78.0,56.2,29.79,ENE,68,5.8,5.8,47,0.00,,,0.00,VWS V14.00,2013-06-30 17:45:00,
2013-06-30 20:46:00,77.9,56.1,29.79,ESE,112,0.8,0.8,47,0.00,,,0.00,VWS V14.00,2013-06-30 17:46:00,
2013-06-30 20:47:00,77.9,56.1,29.79,ESE,112,0.8,0.8,47,0.00,,,0.00,VWS V14.00,2013-06-30 17:47:00,
2013-06-30 20:49:00,77.9,56.1,29.79,ENE,68,1.7,2.6,47,0.00,,,0.00,VWS V14.00,2013-06-30 17:49:00,
2013-06-30 20:50:00,77.9,56.1,29.79,ENE,68,1.7,2.6,47,0.00,,,0.00,VWS V14.00,2013-06-30 17:50:00,
2013-06-30 20:51:00,77.9,56.1,29.79,ENE,68,1.7,1.7,47,0.00,,,0.00,VWS V14.00,2013-06-30 17:51:00,
2013-06-30 20:52:00,77.9,55.5,29.79,SSE,158,3.5,3.5,46,0.00,,,0.00,VWS V14.00,2013-06-30 17:52:00,
2013-06-30 20:54:00,77.7,55.3,29.79,ESE,112,5.5,5.5,46,0.00,,,0.00,VWS V14.00,2013-06-30 17:54:00,
2013-06-30 20:55:00,77.7,55.3,29.79,ESE,112,5.5,5.5,46,0.00,,,0.00,VWS V14.00,2013-06-30 17:55:00,
2013-06-30 20:56:00,77.7,55.3,29.79,SE,135,5.3,5.3,46,0.00,,,0.00,VWS V14.00,2013-06-30 17:56:00,
2013-06-30 20:57:00,77.7,55.3,29.79,SE,135,5.3,5.3,46,0.00,,,0.00,VWS V14.00,2013-06-30 17:57:00,
2013-06-30 20:59:00,77.7,55.9,29.80,ESE,112,3.5,5.3,47,0.00,,,0.00,VWS V14.00,2013-06-30 17:59:00,
2013-06-30 21:00:00,77.7,55.9,29.80,ESE,112,3.5,5.3,47,0.00,,,0.00,VWS V14.00,2013-06-30 18:00:00,
2013-06-30 21:01:00,77.7,55.9,29.80,ESE,112,3.5,3.5,47,0.00,,,0.00,VWS V14.00,2013-06-30 18:01:00,
2013-06-30 21:02:00,77.7,55.9,29.80,ESE,112,3.5,3.5,47,0.00,,,0.00,VWS V14.00,2013-06-30 18:02:00,
2013-06-30 21:04:00,77.5,55.7,29.80,East,90,2.4,3.5,47,0.00,,,0.00,VWS V14.00,2013-06-30 18:04:00,
2013-06-30 21:05:00,77.5,55.7,29.80,East,90,2.4,3.5,47,0.00,,,0.00,VWS V14.00,2013-06-30 18:05:00,
2013-06-30 21:06:00,77.5,55.7,29.80,East,90,2.4,2.4,47,0.00,,,0.00,VWS V14.00,2013-06-30 18:06:00,
2013-06-30 21:07:00,77.5,55.7,29.80,ESE,112,2.4,2.4,47,0.00,,,0.00,VWS V14.00,2013-06-30 18:07:00,
2013-06-30 21:09:00,77.5,56.3,29.80,ENE,68,3.1,3.1,48,0.00,,,0.00,VWS V14.00,2013-06-30 18:09:00,
2013-06-30 21:10:00,77.5,56.3,29.80,ENE,68,3.1,3.1,48,0.00,,,0.00,VWS V14.00,2013-06-30 18:10:00,
2013-06-30 21:11:00,77.5,56.3,29.80,ESE,112,0.0,0.0,48,0.00,,,0.00,VWS V14.00,2013-06-30 18:11:00,
2013-06-30 21:12:00,77.5,56.3,29.80,ESE,112,0.0,0.0,48,0.00,,,0.00,VWS V14.00,2013-06-30 18:12:00,
2013-06-30 21:14:00,77.5,56.9,29.80,ESE,112,3.1,3.1,49,0.00,,,0.00,VWS V14.00,2013-06-30 18:14:00,
2013-06-30 21:15:00,77.5,56.9,29.80,ESE,112,3.1,3.1,49,0.00,,,0.00,VWS V14.00,2013-06-30 18:15:00,
2013-06-30 21:16:00,77.5,56.9,29.81,ESE,112,3.1,3.1,49,0.00,,,0.00,VWS V14.00,2013-06-30 18:16:00,
2013-06-30 21:17:00,77.3,56.7,29.81,East,90,2.6,3.1,49,0.00,,,0.00,VWS V14.00,2013-06-30 18:17:00,
2013-06-30 21:20:00,77.3,57.2,29.80,North,0,2.9,3.1,50,0.00,,,0.00,VWS V14.00,2013-06-30 18:20:00,
2013-06-30 21:21:00,77.3,57.2,29.80,North,0,2.9,2.9,50,0.00,,,0.00,VWS V14.00,2013-06-30 18:21:00,
2013-06-30 21:23:00,77.3,57.2,29.81,ENE,68,2.0,2.9,50,0.00,,,0.00,VWS V14.00,2013-06-30 18:23:00,
2013-06-30 21:25:00,77.1,57.0,29.81,East,90,2.4,2.9,50,0.00,,,0.00,VWS V14.00,2013-06-30 18:25:00,
2013-06-30 21:26:00,77.1,57.0,29.81,ENE,68,4.0,4.0,50,0.00,,,0.00,VWS V14.00,2013-06-30 18:26:00,
2013-06-30 21:28:00,77.1,57.0,29.81,NNE,22,2.0,4.0,50,0.00,,,0.00,VWS V14.00,2013-06-30 18:28:00,
2013-06-30 21:30:00,77.1,57.0,29.81,East,90,2.0,4.0,50,0.00,,,0.00,VWS V14.00,2013-06-30 18:30:00,
2013-06-30 21:31:00,77.1,57.0,29.81,East,90,2.0,2.0,50,0.00,,,0.00,VWS V14.00,2013-06-30 18:31:00,
2013-06-30 21:34:00,77.0,57.0,29.81,SE,135,4.0,4.0,50,0.00,,,0.00,VWS V14.00,2013-06-30 18:34:00,
2013-06-30 21:35:00,77.0,57.5,29.81,SE,135,3.8,4.0,51,0.00,,,0.00,VWS V14.00,2013-06-30 18:35:00,
2013-06-30 21:36:00,77.0,57.5,29.81,SE,135,3.8,3.8,51,0.00,,,0.00,VWS V14.00,2013-06-30 18:36:00,
2013-06-30 21:39:00,76.8,57.3,29.81,NNE,22,2.6,3.8,51,0.00,,,0.00,VWS V14.00,2013-06-30 18:39:00,
2013-06-30 21:40:00,76.8,57.3,29.81,NNE,22,2.6,3.8,51,0.00,,,0.00,VWS V14.00,2013-06-30 18:40:00,
2013-06-30 21:41:00,76.8,57.3,29.81,ENE,68,5.1,5.1,51,0.00,,,0.00,VWS V14.00,2013-06-30 18:41:00,
2013-06-30 21:44:00,76.8,57.3,29.81,NE,45,1.1,5.1,51,0.00,,,0.00,VWS V14.00,2013-06-30 18:44:00,
2013-06-30 21:46:00,76.8,57.3,29.81,ENE,68,2.0,2.0,51,0.00,,,0.00,VWS V14.00,2013-06-30 18:46:00,
2013-06-30 21:47:00,76.8,57.3,29.81,ENE,68,2.0,2.0,51,0.00,,,0.00,VWS V14.00,2013-06-30 18:47:00,
2013-06-30 21:49:00,76.6,57.1,29.81,NNE,22,5.1,5.1,51,0.00,,,0.00,VWS V14.00,2013-06-30 18:49:00,
2013-06-30 21:51:00,76.6,57.1,29.81,East,90,1.5,1.5,51,0.00,,,0.00,VWS V14.00,2013-06-30 18:51:00,
2013-06-30 21:52:00,76.4,57.5,29.81,ENE,68,3.5,3.5,52,0.00,,,0.00,VWS V14.00,2013-06-30 18:52:00,
2013-06-30 21:54:00,76.4,57.5,29.81,ESE,112,0.6,3.5,52,0.00,,,0.00,VWS V14.00,2013-06-30 18:54:00,
2013-06-30 21:56:00,76.2,57.3,29.81,East,90,2.9,2.9,52,0.00,,,0.00,VWS V14.00,2013-06-30 18:56:00,
2013-06-30 21:57:00,76.2,57.3,29.82,East,90,1.5,2.9,52,0.00,,,0.00,VWS V14.00,2013-06-30 18:57:00,
2013-06-30 21:59:00,76.2,57.3,29.82,East,90,1.5,2.9,52,0.00,,,0.00,VWS V14.00,2013-06-30 18:59:00,
2013-06-30 22:01:00,76.2,57.3,29.82,East,90,3.1,3.1,52,0.00,,,0.00,VWS V14.00,2013-06-30 19:01:00,
2013-06-30 22:02:00,76.1,57.2,29.82,ESE,112,4.0,4.0,52,0.00,,,0.00,VWS V14.00,2013-06-30 19:02:00,
2013-06-30 22:04:00,76.1,57.2,29.82,ESE,112,4.0,4.0,52,0.00,,,0.00,VWS V14.00,2013-06-30 19:04:00,
2013-06-30 22:06:00,75.9,57.0,29.82,East,90,1.7,3.1,52,0.00,,,0.00,VWS V14.00,2013-06-30 19:06:00,
2013-06-30 22:07:00,75.9,57.0,29.82,East,90,1.7,3.1,52,0.00,,,0.00,VWS V14.00,2013-06-30 19:07:00,
2013-06-30 22:08:00,75.9,57.0,29.82,East,90,1.7,3.1,52,0.00,,,0.00,VWS V14.00,2013-06-30 19:08:00,
2013-06-30 22:09:00,75.9,56.5,29.82,ENE,68,0.8,3.1,51,0.00,,,0.00,VWS V14.00,2013-06-30 19:09:00,
2013-06-30 22:11:00,75.9,57.0,29.82,East,90,2.9,2.9,52,0.00,,,0.00,VWS V14.00,2013-06-30 19:11:00,
2013-06-30 22:12:00,75.9,57.0,29.82,East,90,2.9,2.9,52,0.00,,,0.00,VWS V14.00,2013-06-30 19:12:00,
2013-06-30 22:13:00,75.9,56.5,29.82,ESE,112,2.9,2.9,51,0.00,,,0.00,VWS V14.00,2013-06-30 19:13:00,
2013-06-30 22:14:00,75.9,56.5,29.82,ESE,112,2.9,2.9,51,0.00,,,0.00,VWS V14.00,2013-06-30 19:14:00,
2013-06-30 22:16:00,75.9,56.5,29.82,ESE,112,1.5,2.4,51,0.00,,,0.00,VWS V14.00,2013-06-30 19:16:00,
2013-06-30 22:17:00,75.9,56.5,29.82,ESE,112,1.5,2.4,51,0.00,,,0.00,VWS V14.00,2013-06-30 19:17:00,
2013-06-30 22:18:00,75.7,56.8,29.82,ESE,112,1.5,2.4,52,0.00,,,0.00,VWS V14.00,2013-06-30 19:18:00,
2013-06-30 22:19:00,75.7,56.8,29.82,ESE,112,1.5,2.4,52,0.00,,,0.00,VWS V14.00,2013-06-30 19:19:00,
2013-06-30 22:21:00,75.7,56.8,29.83,NNE,22,0.0,0.0,52,0.00,,,0.00,VWS V14.00,2013-06-30 19:21:00,
2013-06-30 22:22:00,75.7,56.8,29.83,NNE,22,0.0,0.0,52,0.00,,,0.00,VWS V14.00,2013-06-30 19:22:00,
2013-06-30 22:23:00,75.7,56.8,29.83,NNE,22,0.0,0.0,52,0.00,,,0.00,VWS V14.00,2013-06-30 19:23:00,
2013-06-30 22:24:00,75.7,56.8,29.83,ENE,68,1.3,1.3,52,0.00,,,0.00,VWS V14.00,2013-06-30 19:24:00,
2013-06-30 22:26:00,75.7,56.8,29.83,East,90,2.2,2.2,52,0.00,,,0.00,VWS V14.00,2013-06-30 19:26:00,
2013-06-30 22:27:00,75.7,56.8,29.83,East,90,2.2,2.2,52,0.00,,,0.00,VWS V14.00,2013-06-30 19:27:00,
2013-06-30 22:28:00,75.7,56.8,29.83,ENE,68,2.4,2.4,52,0.00,,,0.00,VWS V14.00,2013-06-30 19:28:00,
2013-06-30 22:29:00,75.5,56.7,29.83,ENE,68,0.0,2.4,52,0.00,,,0.00,VWS V14.00,2013-06-30 19:29:00,
2013-06-30 22:31:00,75.5,56.7,29.83,ENE,68,0.0,0.0,52,0.00,,,0.00,VWS V14.00,2013-06-30 19:31:00,
2013-06-30 22:32:00,75.5,56.7,29.83,ENE,68,0.0,0.0,52,0.00,,,0.00,VWS V14.00,2013-06-30 19:32:00,
2013-06-30 22:33:00,75.5,56.7,29.83,ENE,68,0.0,0.0,52,0.00,,,0.00,VWS V14.00,2013-06-30 19:33:00,
2013-06-30 22:34:00,75.5,56.7,29.83,ENE,68,0.0,0.0,52,0.00,,,0.00,VWS V14.00,2013-06-30 19:34:00,
2013-06-30 22:36:00,75.5,56.7,29.83,ENE,68,1.3,1.3,52,0.00,,,0.00,VWS V14.00,2013-06-30 19:36:00,
2013-06-30 22:37:00,75.5,56.7,29.83,ENE,68,1.3,1.3,52,0.00,,,0.00,VWS V14.00,2013-06-30 19:37:00,
2013-06-30 22:38:00,75.5,56.7,29.84,ENE,68,1.3,1.3,52,0.00,,,0.00,VWS V14.00,2013-06-30 19:38:00,
2013-06-30 22:40:00,75.5,56.7,29.83,East,90,0.0,1.3,52,0.00,,,0.00,VWS V14.00,2013-06-30 19:40:00,
2013-06-30 22:41:00,75.3,56.5,29.84,ESE,112,1.5,1.5,52,0.00,,,0.00,VWS V14.00,2013-06-30 19:41:00,
2013-06-30 22:42:00,75.3,56.5,29.84,ESE,112,1.5,1.5,52,0.00,,,0.00,VWS V14.00,2013-06-30 19:42:00,
2013-06-30 22:43:00,75.3,56.5,29.84,ENE,68,0.0,1.5,52,0.00,,,0.00,VWS V14.00,2013-06-30 19:43:00,
2013-06-30 22:45:00,75.3,56.5,29.84,NE,45,0.0,1.5,52,0.00,,,0.00,VWS V14.00,2013-06-30 19:45:00,
2013-06-30 22:47:00,75.3,56.5,29.84,NNE,22,0.0,0.0,52,0.00,,,0.00,VWS V14.00,2013-06-30 19:47:00,
2013-06-30 22:48:00,75.3,56.5,29.84,NNE,22,0.0,0.0,52,0.00,,,0.00,VWS V14.00,2013-06-30 19:48:00,
2013-06-30 22:50:00,75.3,56.5,29.84,NNE,22,0.0,0.0,52,0.00,,,0.00,VWS V14.00,2013-06-30 19:50:00,
2013-06-30 22:52:00,75.3,56.5,29.84,NE,45,0.0,0.0,52,0.00,,,0.00,VWS V14.00,2013-06-30 19:52:00,
2013-06-30 22:53:00,75.3,56.5,29.84,NE,45,0.0,0.0,52,0.00,,,0.00,VWS V14.00,2013-06-30 19:53:00,
2013-06-30 22:55:00,75.3,56.5,29.84,NE,45,0.0,1.1,52,0.00,,,0.00,VWS V14.00,2013-06-30 19:55:00,
2013-06-30 22:57:00,75.3,56.5,29.84,NE,45,0.0,0.0,52,0.00,,,0.00,VWS V14.00,2013-06-30 19:57:00,
2013-06-30 22:58:00,75.3,56.5,29.84,North,0,3.1,3.1,52,0.00,,,0.00,VWS V14.00,2013-06-30 19:58:00,
2013-06-30 23:00:00,75.3,56.5,29.84,NNE,22,2.4,3.1,52,0.00,,,0.00,VWS V14.00,2013-06-30 20:00:00,
2013-06-30 23:02:00,75.3,56.5,29.83,North,0,0.8,2.4,52,0.00,,,0.00,VWS V14.00,2013-06-30 20:02:00,
2013-06-30 23:03:00,75.3,56.5,29.83,North,0,0.8,2.4,52,0.00,,,0.00,VWS V14.00,2013-06-30 20:03:00,
2013-06-30 23:04:00,75.3,57.0,29.84,NNE,22,2.6,2.6,53,0.00,,,0.00,VWS V14.00,2013-06-30 20:04:00,
2013-06-30 23:05:00,75.2,56.9,29.84,NNE,22,2.6,2.6,53,0.00,,,0.00,VWS V14.00,2013-06-30 20:05:00,
2013-06-30 23:07:00,75.0,56.7,29.84,NNE,22,0.0,2.6,53,0.00,,,0.00,VWS V14.00,2013-06-30 20:07:00,
2013-06-30 23:08:00,75.0,56.7,29.84,NNE,22,0.0,2.6,53,0.00,,,0.00,VWS V14.00,2013-06-30 20:08:00,
2013-06-30 23:09:00,75.0,56.7,29.84,NW,315,2.2,2.6,53,0.00,,,0.00,VWS V14.00,2013-06-30 20:09:00,
2013-06-30 23:10:00,75.0,56.7,29.84,NNE,22,2.9,2.9,53,0.00,,,0.00,VWS V14.00,2013-06-30 20:10:00,
2013-06-30 23:12:00,75.0,56.7,29.84,NNE,22,2.0,2.9,53,0.00,,,0.00,VWS V14.00,2013-06-30 20:12:00,
2013-06-30 23:13:00,75.0,56.7,29.84,NNE,22,2.0,2.9,53,0.00,,,0.00,VWS V14.00,2013-06-30 20:13:00,
2013-06-30 23:14:00,75.0,56.7,29.84,NNE,22,2.0,2.9,53,0.00,,,0.00,VWS V14.00,2013-06-30 20:14:00,
2013-06-30 23:16:00,75.0,57.2,29.84,NNW,338,1.7,1.7,54,0.00,,,0.00,VWS V14.00,2013-06-30 20:16:00,
2013-06-30 23:17:00,74.8,57.1,29.84,NE,45,1.5,1.7,54,0.00,,,0.00,VWS V14.00,2013-06-30 20:17:00,
2013-06-30 23:18:00,74.8,57.1,29.84,NE,45,1.5,1.7,54,0.00,,,0.00,VWS V14.00,2013-06-30 20:18:00,
2013-06-30 23:19:00,74.8,57.1,29.84,NNE,22,0.8,1.7,54,0.00,,,0.00,VWS V14.00,2013-06-30 20:19:00,
2013-06-30 23:21:00,74.8,57.1,29.84,NNW,338,2.4,2.4,54,0.00,,,0.00,VWS V14.00,2013-06-30 20:21:00,
2013-06-30 23:22:00,74.8,57.1,29.84,NNW,338,2.4,2.4,54,0.00,,,0.00,VWS V14.00,2013-06-30 20:22:00,
2013-06-30 23:23:00,74.8,57.1,29.84,NNW,338,2.4,2.4,54,0.00,,,0.00,VWS V14.00,2013-06-30 20:23:00,
2013-06-30 23:24:00,74.8,57.1,29.84,NNW,338,6.7,6.7,54,0.00,,,0.00,VWS V14.00,2013-06-30 20:24:00,
2013-06-30 23:26:00,74.8,57.6,29.84,NE,45,4.6,4.6,55,0.00,,,0.00,VWS V14.00,2013-06-30 20:26:00,
2013-06-30 23:27:00,74.8,57.6,29.83,NE,45,4.6,4.6,55,0.00,,,0.00,VWS V14.00,2013-06-30 20:27:00,
2013-06-30 23:29:00,74.8,57.6,29.84,NE,45,4.6,4.6,55,0.00,,,0.00,VWS V14.00,2013-06-30 20:29:00,
2013-06-30 23:31:00,74.4,57.2,29.84,North,0,4.2,4.2,55,0.00,,,0.00,VWS V14.00,2013-06-30 20:31:00,
2013-06-30 23:32:00,74.4,57.2,29.84,North,0,4.2,4.2,55,0.00,,,0.00,VWS V14.00,2013-06-30 20:32:00,
2013-06-30 23:34:00,74.4,57.2,29.83,NNE,22,2.6,4.2,55,0.00,,,0.00,VWS V14.00,2013-06-30 20:34:00,
2013-06-30 23:36:00,74.4,57.2,29.84,NNE,22,4.9,4.9,55,0.00,,,0.00,VWS V14.00,2013-06-30 20:36:00,
2013-06-30 23:37:00,74.4,57.2,29.84,NNE,22,4.9,4.9,55,0.00,,,0.00,VWS V14.00,2013-06-30 20:37:00,
2013-06-30 23:39:00,74.3,57.1,29.84,NNE,22,6.2,6.2,55,0.00,,,0.00,VWS V14.00,2013-06-30 20:39:00,
2013-06-30 23:41:00,74.1,56.9,29.84,North,0,3.5,3.5,55,0.00,,,0.00,VWS V14.00,2013-06-30 20:41:00,
2013-06-30 23:42:00,74.1,57.4,29.84,NNE,22,0.6,3.5,56,0.00,,,0.00,VWS V14.00,2013-06-30 20:42:00,
2013-06-30 23:44:00,74.1,57.4,29.84,NNE,22,0.6,3.5,56,0.00,,,0.00,VWS V14.00,2013-06-30 20:44:00,
2013-06-30 23:45:00,73.9,57.2,29.84,North,0,4.6,4.6,56,0.00,,,0.00,VWS V14.00,2013-06-30 20:45:00,
2013-06-30 23:46:00,73.9,57.2,29.84,NNW,338,0.0,4.6,56,0.00,,,0.00,VWS V14.00,2013-06-30 20:46:00,
2013-06-30 23:47:00,73.9,57.2,29.84,NNW,338,0.0,4.6,56,0.00,,,0.00,VWS V14.00,2013-06-30 20:47:00,
2013-06-30 23:49:00,73.9,57.2,29.84,NE,45,1.3,4.6,56,0.00,,,0.00,VWS V14.00,2013-06-30 20:49:00,
2013-06-30 23:50:00,73.9,57.2,29.84,NE,45,1.3,4.6,56,0.00,,,0.00,VWS V14.00,2013-06-30 20:50:00,
2013-06-30 23:51:00,73.7,57.0,29.84,NNE,22,2.0,2.0,56,0.00,,,0.00,VWS V14.00,2013-06-30 20:51:00,
2013-06-30 23:53:00,73.7,57.0,29.84,NNE,22,2.0,2.0,56,0.00,,,0.00,VWS V14.00,2013-06-30 20:53:00,
2013-06-30 23:54:00,73.5,57.3,29.84,NNE,22,2.2,2.2,57,0.00,,,0.00,VWS V14.00,2013-06-30 20:54:00,
2013-06-30 23:55:00,73.5,57.3,29.84,NNE,22,2.2,2.2,57,0.00,,,0.00,VWS V14.00,2013-06-30 20:55:00,
2013-06-30 23:57:00,73.5,57.3,29.84,NNE,22,5.1,5.1,57,0.00,,,0.00,VWS V14.00,2013-06-30 20:57:00,
2013-06-30 23:58:00,73.5,57.3,29.84,NE,45,0.0,5.1,57,0.00,,,0.00,VWS V14.00,2013-06-30 20:58:00,
2013-06-30 23:59:00,73.4,57.3,29.84,NNE,22,5.8,5.8,57,0.00,,,0.00,VWS V14.00,2013-06-30 20:59:00,